Darstellungsparameter: Aktuell verwendete Einstellungen:
Skalierung der Graphiken ... ?
xyx+y,   Skalierungsfaktor:      Skalierung: Modus: x, Faktor: 1
Darstellungszeitraum ... ?
Vom - - bis: - -   Zeitraum: 04.06.2005 - 17.06.2005
Min/Max/Avg-Anzeige ... ?
Zeige MMA aktuell
Zeige MMA Monat
Zeige MMA alles
Zeige --A aktuell
Zeige --A Monat
Zeige --A alles
Keine MMA-Anzeige
MMA:
Average (ber die Originaldaten)
MMA-Basis: 04.06.2005 - 17.06.2005
Quicknavigation für Darstellung... ?
Tage:      1T, 2T, 3T, 5T -1T -2T -3T -5T +1T +2T +3T +5T
Wochen: 1W, 2W, 3W -1W -2W -3W +1W +2W +3W
Monate: 1M, 3M, 6M -1M -3M -6M +1M +3M +6M
Jahre:    1J, 3J, 5J, 10J -1J -3J -5J -10J +1J +3J +5J +10J
Nutze für die Darstellung ... ?
Originaldaten oder Mittelwerte auf ...
Stundenbasis Tagesbasis Wochenbasis
Monatsbasis Jahresbasis      Datenbasis: Original-Daten
Darstellen als:
Statistik (Auto) Statistik J:M      Darstellung:
Zur Graphik,    zurück zur Übersicht aller Sensoren.
 
Tabellarische Datenbersicht: ?
 
Sensor: Nr:Datum:Temp:Abs-Feuchte:Windchill:Wind:
Aussen-T/F 1 04-06-2005 00:08:42 17.5 C 11.03 g/m*3 17.5 C 0 km/h
2 04-06-2005 00:20:42 17.5 C 11.03 g/m*3 17.5 C 0 km/h
3 04-06-2005 00:32:42 17.7 C 11.16 g/m*3 17.7 C 0 km/h
4 04-06-2005 00:44:42 18.1 C 11.12 g/m*3 18.1 C 0 km/h
5 04-06-2005 00:56:42 17.3 C 11.49 g/m*3 17.3 C 0 km/h
6 04-06-2005 01:08:42 16.8 C 11.29 g/m*3 16.8 C 0 km/h
7 04-06-2005 01:20:42 16.6 C 11.02 g/m*3 16.6 C 0 km/h
8 04-06-2005 01:32:42 16.7 C 11.23 g/m*3 16.7 C 0 km/h
9 04-06-2005 01:44:42 16.7 C 11.08 g/m*3 16.7 C 0 km/h
10 04-06-2005 01:56:42 16.8 C 11.44 g/m*3 16.8 C 0 km/h
11 04-06-2005 02:08:42 16.8 C 11.29 g/m*3 16.8 C 0 km/h
12 04-06-2005 02:20:42 16.8 C 11.01 g/m*3 16.8 C 0 km/h
13 04-06-2005 02:32:42 16.8 C 10.87 g/m*3 16.8 C 0 km/h
14 04-06-2005 02:44:42 16.6 C 10.74 g/m*3 16.6 C 0 km/h
15 04-06-2005 02:56:42 16.3 C 10.68 g/m*3 16.3 C 0 km/h
16 04-06-2005 03:08:42 16.1 C 10.55 g/m*3 16.1 C 0 km/h
17 04-06-2005 03:20:43 16.2 C 10.62 g/m*3 16.2 C 0 km/h
18 04-06-2005 03:32:43 16.2 C 10.2 g/m*3 16.2 C 0 km/h
19 04-06-2005 03:44:43 16.2 C 10.07 g/m*3 16.2 C 0 km/h
20 04-06-2005 03:56:43 16.3 C 10.13 g/m*3 16.3 C 0 km/h
21 04-06-2005 04:08:43 16.2 C 9.93 g/m*3 16.2 C 0 km/h
22 04-06-2005 04:20:43 16.3 C 9.85 g/m*3 16.3 C 0 km/h
23 04-06-2005 04:32:43 16.2 C 10.07 g/m*3 16.2 C 0 km/h
24 04-06-2005 04:44:43 16.2 C 9.65 g/m*3 16.2 C 0 km/h
25 04-06-2005 04:56:43 16.1 C 9.18 g/m*3 16.1 C 0 km/h
Sensor: Nr:Datum:Temp:Abs-Feuchte:Windchill:Wind:
Aussen-T/F 26 04-06-2005 05:08:43 16 C 8.72 g/m*3 16 C 0 km/h
27 04-06-2005 05:20:43 16 C 8.58 g/m*3 16 C 0 km/h
28 04-06-2005 05:32:43 15.8 C 9.02 g/m*3 15.8 C 0 km/h
29 04-06-2005 05:44:43 15.3 C 8.62 g/m*3 15.3 C 0 km/h
30 04-06-2005 05:56:43 15.3 C 8.88 g/m*3 15.3 C 0 km/h
31 04-06-2005 06:08:43 15.1 C 8.77 g/m*3 15.1 C 0 km/h
32 04-06-2005 06:20:43 14.8 C 8.36 g/m*3 14.8 C 0 km/h
33 04-06-2005 06:32:43 14.6 C 8.13 g/m*3 14.6 C 0 km/h
34 04-06-2005 06:44:02 15 C 8.08 g/m*3 15 C 0 km/h
35 04-06-2005 06:56:02 14.9 C 8.28 g/m*3 14.9 C 0 km/h
36 04-06-2005 07:08:02 14.8 C 8.49 g/m*3 14.8 C 0 km/h
37 04-06-2005 07:20:02 14 C 7.96 g/m*3 14 C 0 km/h
38 04-06-2005 07:32:02 14.6 C 8.26 g/m*3 14.6 C 0 km/h
39 04-06-2005 07:44:02 14.9 C 8.16 g/m*3 14.9 C 0 km/h
40 04-06-2005 07:56:03 14.7 C 8.06 g/m*3 14.7 C 0 km/h
41 04-06-2005 08:08:03 14.6 C 8.01 g/m*3 14.6 C 0 km/h
42 04-06-2005 08:20:02 14.6 C 7.88 g/m*3 14.6 C 0 km/h
43 04-06-2005 08:32:03 14.7 C 8.31 g/m*3 14.7 C 0 km/h
44 04-06-2005 08:44:03 15.2 C 7.79 g/m*3 15.2 C 0 km/h
45 04-06-2005 08:56:02 14.7 C 7.81 g/m*3 14.7 C 0 km/h
46 04-06-2005 09:08:03 14.9 C 7.65 g/m*3 14.9 C 0 km/h
47 04-06-2005 09:20:02 15 C 7.18 g/m*3 15 C 0 km/h
48 04-06-2005 09:32:06 15.2 C 7.01 g/m*3 15.2 C 0 km/h
49 04-06-2005 09:44:06 15.5 C 7.4 g/m*3 15.5 C 0 km/h
50 04-06-2005 09:56:02 15.6 C 7.18 g/m*3 15.6 C 0 km/h
Sensor: Nr:Datum:Temp:Abs-Feuchte:Windchill:Wind:
Aussen-T/F 51 04-06-2005 10:08:02 15.4 C 6.83 g/m*3 15.4 C 0 km/h
52 04-06-2005 10:20:03 15.8 C 6.87 g/m*3 15.8 C 0 km/h
53 04-06-2005 10:32:02 16 C 7.22 g/m*3 16 C 0 km/h
54 04-06-2005 10:44:03 15.9 C 7.18 g/m*3 15.9 C 0 km/h
55 04-06-2005 10:56:02 16.5 C 6.46 g/m*3 16.5 C 0 km/h
56 04-06-2005 11:08:02 16.6 C 6.78 g/m*3 16.6 C 0 km/h
57 04-06-2005 11:20:02 17.2 C 6.44 g/m*3 17.2 C 0 km/h
58 04-06-2005 11:32:01 17.4 C 6.22 g/m*3 17.4 C 0 km/h
59 04-06-2005 11:44:01 17.8 C 6.53 g/m*3 17.8 C 0 km/h
60 04-06-2005 11:56:02 18.1 C 6.8 g/m*3 18.1 C 0 km/h
61 04-06-2005 12:08:02 17.7 C 6.79 g/m*3 17.7 C 0 km/h
62 04-06-2005 12:20:01 18.1 C 6.64 g/m*3 18.1 C 0 km/h
63 04-06-2005 12:32:02 18.8 C 6.6 g/m*3 18.8 C 0 km/h
64 04-06-2005 12:44:02 19.2 C 6.76 g/m*3 19.2 C 0 km/h
65 04-06-2005 12:56:01 18.2 C 6.68 g/m*3 18.2 C 0 km/h
66 04-06-2005 13:08:01 17.5 C 6.71 g/m*3 17.5 C 0 km/h
67 04-06-2005 13:20:01 17.5 C 6.71 g/m*3 17.5 C 0 km/h
68 04-06-2005 13:32:02 17.9 C 6.72 g/m*3 17.9 C 0 km/h
69 04-06-2005 13:44:02 18.5 C 6.8 g/m*3 18.5 C 0 km/h
70 04-06-2005 13:56:03 18 C 6.45 g/m*3 18 C 0 km/h
71 04-06-2005 14:08:04 19 C 6.68 g/m*3 19 C 0 km/h
72 04-06-2005 14:20:03 19.5 C 6.71 g/m*3 19.5 C 0 km/h
73 04-06-2005 14:32:02 19.7 C 6.79 g/m*3 19.7 C 0 km/h
74 04-06-2005 14:44:03 19.1 C 7.05 g/m*3 19.1 C 0 km/h
75 04-06-2005 14:56:02 19.6 C 6.92 g/m*3 19.6 C 0 km/h
Sensor: Nr:Datum:Temp:Abs-Feuchte:Windchill:Wind:
Aussen-T/F 76 04-06-2005 15:08:02 20.1 C 6.95 g/m*3 20.1 C 0 km/h
77 04-06-2005 15:20:02 19.7 C 6.62 g/m*3 19.7 C 0 km/h
78 04-06-2005 15:32:03 20.1 C 6.78 g/m*3 20.1 C 0 km/h
79 04-06-2005 15:44:03 19.8 C 6.66 g/m*3 19.8 C 0 km/h
80 04-06-2005 15:56:03 19.9 C 6.7 g/m*3 19.9 C 0 km/h
81 04-06-2005 16:08:02 20.3 C 6.86 g/m*3 20.3 C 0 km/h
82 04-06-2005 16:20:03 19.5 C 6.88 g/m*3 19.5 C 0 km/h
83 04-06-2005 16:32:03 18.9 C 6.8 g/m*3 18.9 C 0 km/h
84 04-06-2005 16:44:03 18.5 C 6.65 g/m*3 18.5 C 0 km/h
85 04-06-2005 16:56:02 17 C 7.96 g/m*3 17 C 0 km/h
86 04-06-2005 17:08:03 16.8 C 8.72 g/m*3 16.8 C 0 km/h
87 04-06-2005 17:20:03 17.9 C 8.55 g/m*3 17.9 C 0 km/h
88 04-06-2005 17:32:03 19.4 C 8.18 g/m*3 19.4 C 0 km/h
89 04-06-2005 17:44:03 19.9 C 8.08 g/m*3 19.9 C 0 km/h
90 04-06-2005 17:56:03 18.5 C 7.44 g/m*3 18.5 C 0 km/h
91 04-06-2005 18:08:02 17.8 C 8.04 g/m*3 17.8 C 0 km/h
92 04-06-2005 18:20:02 16.8 C 8.86 g/m*3 16.8 C 0 km/h
93 04-06-2005 18:32:03 18.3 C 8.6 g/m*3 18.3 C 0 km/h
94 04-06-2005 18:44:03 19.3 C 8.46 g/m*3 19.3 C 0 km/h
95 04-06-2005 18:56:02 19.7 C 7.98 g/m*3 19.7 C 0 km/h
96 04-06-2005 19:08:02 18.3 C 7.66 g/m*3 18.3 C 0 km/h
97 04-06-2005 19:20:02 17.5 C 7.75 g/m*3 17.5 C 0 km/h
98 04-06-2005 19:32:02 14.7 C 9.32 g/m*3 14.7 C 0 km/h
99 04-06-2005 19:44:02 14.2 C 9.65 g/m*3 14.2 C 0 km/h
100 04-06-2005 19:56:03 14.4 C 9.52 g/m*3 14.4 C 0 km/h
Sensor: Nr:Datum:Temp:Abs-Feuchte:Windchill:Wind:
Aussen-T/F 101 04-06-2005 20:08:02 14.3 C 8.97 g/m*3 14.3 C 0 km/h
102 04-06-2005 20:20:03 14.3 C 8.97 g/m*3 14.3 C 0 km/h
103 04-06-2005 20:32:02 14.5 C 8.83 g/m*3 14.5 C 0 km/h
104 04-06-2005 20:44:02 14.8 C 8.99 g/m*3 14.8 C 0 km/h
105 04-06-2005 20:56:01 14.5 C 9.08 g/m*3 14.5 C 0 km/h
106 04-06-2005 21:08:01 14.2 C 8.91 g/m*3 14.2 C 0 km/h
107 04-06-2005 21:20:01 14.3 C 9.09 g/m*3 14.3 C 0 km/h
108 04-06-2005 21:32:00 14.3 C 9.09 g/m*3 14.3 C 0 km/h
109 04-06-2005 21:44:00 14.3 C 9.09 g/m*3 14.3 C 0 km/h
110 04-06-2005 21:56:02 14.4 C 9.15 g/m*3 14.4 C 0 km/h
111 04-06-2005 22:08:02 14.4 C 9.15 g/m*3 14.4 C 0 km/h
112 04-06-2005 22:20:01 14.1 C 9.47 g/m*3 14.1 C 0 km/h
113 04-06-2005 22:32:01 13.7 C 9.59 g/m*3 13.7 C 0 km/h
114 04-06-2005 22:44:01 13.9 C 9.35 g/m*3 13.9 C 0 km/h
115 04-06-2005 22:56:02 13.8 C 8.94 g/m*3 13.8 C 0 km/h
116 04-06-2005 23:08:03 14.1 C 8.62 g/m*3 14.1 C 0 km/h
117 04-06-2005 23:20:02 14.1 C 8.74 g/m*3 14.1 C 0 km/h
118 04-06-2005 23:32:02 13.9 C 8.75 g/m*3 13.9 C 0 km/h
119 04-06-2005 23:44:02 13.7 C 8.76 g/m*3 13.7 C 0 km/h
120 04-06-2005 23:56:02 13.5 C 8.77 g/m*3 13.5 C 0 km/h
121 05-06-2005 00:08:01 13.4 C 8.72 g/m*3 13.4 C 0 km/h
122 05-06-2005 00:20:02 13.4 C 8.72 g/m*3 13.4 C 0 km/h
123 05-06-2005 00:32:01 13 C 8.51 g/m*3 13 C 0 km/h
124 05-06-2005 00:44:01 12.8 C 8.62 g/m*3 12.8 C 0 km/h
125 05-06-2005 00:56:02 12.6 C 8.52 g/m*3 12.6 C 0 km/h
Sensor: Nr:Datum:Temp:Abs-Feuchte:Windchill:Wind:
Aussen-T/F 126 05-06-2005 01:08:02 12.4 C 8.52 g/m*3 12.4 C 0 km/h
127 05-06-2005 01:20:02 12.4 C 8.41 g/m*3 12.4 C 0 km/h
128 05-06-2005 01:32:02 12.4 C 8.41 g/m*3 12.4 C 0 km/h
129 05-06-2005 01:44:02 12.3 C 8.25 g/m*3 12.3 C 0 km/h
130 05-06-2005 01:56:02 12.2 C 8.2 g/m*3 12.2 C 0 km/h
131 05-06-2005 02:08:02 12.4 C 8.19 g/m*3 12.4 C 0 km/h
132 05-06-2005 02:20:02 12.3 C 8.04 g/m*3 12.3 C 0 km/h
133 05-06-2005 02:32:01 12.2 C 7.99 g/m*3 12.2 C 0 km/h
134 05-06-2005 02:44:01 12.2 C 7.99 g/m*3 12.2 C 0 km/h
135 05-06-2005 02:57:03 12.1 C 8.04 g/m*3 12.1 C 0 km/h
136 05-06-2005 03:09:03 12 C 7.99 g/m*3 12 C 0 km/h
137 05-06-2005 03:21:03 12.1 C 7.94 g/m*3 12.1 C 0 km/h
138 05-06-2005 03:33:03 12.2 C 7.88 g/m*3 12.2 C 0 km/h
139 05-06-2005 03:45:03 12.2 C 7.77 g/m*3 12.2 C 0 km/h
140 05-06-2005 03:57:03 12.3 C 7.71 g/m*3 12.3 C 0 km/h
141 05-06-2005 04:09:03 12.2 C 7.66 g/m*3 12.2 C 0 km/h
142 05-06-2005 04:21:03 12.1 C 7.61 g/m*3 12.1 C 0 km/h
143 05-06-2005 04:33:02 12.1 C 7.61 g/m*3 12.1 C 0 km/h
144 05-06-2005 04:45:02 12 C 7.57 g/m*3 12 C 0 km/h
145 05-06-2005 04:57:02 12 C 7.46 g/m*3 12 C 0 km/h
146 05-06-2005 05:09:02 12 C 7.57 g/m*3 12 C 0 km/h
147 05-06-2005 05:21:02 12 C 7.46 g/m*3 12 C 0 km/h
148 05-06-2005 05:33:02 12 C 7.46 g/m*3 12 C 0 km/h
149 05-06-2005 05:45:02 12 C 7.35 g/m*3 12 C 0 km/h
150 05-06-2005 05:57:02 12 C 7.25 g/m*3 12 C 0 km/h
Sensor: Nr:Datum:Temp:Abs-Feuchte:Windchill:Wind:
Aussen-T/F 151 05-06-2005 06:09:02 12 C 7.35 g/m*3 12 C 0 km/h
152 05-06-2005 06:21:02 12 C 7.35 g/m*3 12 C 0 km/h
153 05-06-2005 06:33:02 12 C 7.25 g/m*3 12 C 0 km/h
154 05-06-2005 06:45:02 12 C 7.25 g/m*3 12 C 0 km/h
155 05-06-2005 06:57:02 12.1 C 7.18 g/m*3 12.1 C 0 km/h
156 05-06-2005 07:09:01 12.2 C 7.23 g/m*3 12.2 C 0 km/h
157 05-06-2005 07:21:01 12.2 C 7.23 g/m*3 12.2 C 0 km/h
158 05-06-2005 07:33:02 12.3 C 7.28 g/m*3 12.3 C 0 km/h
159 05-06-2005 07:45:02 12.5 C 7.37 g/m*3 12.5 C 0 km/h
160 05-06-2005 07:57:02 12.8 C 7.5 g/m*3 12.8 C 0 km/h
161 05-06-2005 08:09:02 13 C 7.48 g/m*3 13 C 0 km/h
162 05-06-2005 08:21:01 13.1 C 7.42 g/m*3 13.1 C 0 km/h
163 05-06-2005 08:33:02 13.3 C 7.51 g/m*3 13.3 C 0 km/h
164 05-06-2005 08:45:01 13.4 C 7.56 g/m*3 13.4 C 0 km/h
165 05-06-2005 08:57:01 13.5 C 7.49 g/m*3 13.5 C 0 km/h
166 05-06-2005 09:09:01 13.6 C 7.77 g/m*3 13.6 C 0 km/h
167 05-06-2005 09:21:01 13.7 C 8.05 g/m*3 13.7 C 0 km/h
168 05-06-2005 09:33:02 14.4 C 8.03 g/m*3 14.4 C 0 km/h
169 05-06-2005 09:45:02 14.8 C 8.11 g/m*3 14.8 C 0 km/h
170 05-06-2005 09:57:02 14.7 C 7.93 g/m*3 14.7 C 0 km/h
171 05-06-2005 10:09:02 14.9 C 7.9 g/m*3 14.9 C 0 km/h
172 05-06-2005 10:21:02 14.8 C 7.73 g/m*3 14.8 C 0 km/h
173 05-06-2005 10:33:02 15 C 7.82 g/m*3 15 C 0 km/h
174 05-06-2005 10:45:02 15.5 C 7.8 g/m*3 15.5 C 0 km/h
175 05-06-2005 10:57:02 16.1 C 7.81 g/m*3 16.1 C 0 km/h
Sensor: Nr:Datum:Temp:Abs-Feuchte:Windchill:Wind:
Aussen-T/F 176 05-06-2005 11:09:02 16 C 7.63 g/m*3 16 C 0 km/h
177 05-06-2005 11:21:01 15.8 C 7.81 g/m*3 15.8 C 0 km/h
178 05-06-2005 11:33:04 15.9 C 7.99 g/m*3 15.9 C 0 km/h
179 05-06-2005 11:45:02 16.6 C 7.77 g/m*3 16.6 C 0 km/h
180 05-06-2005 11:57:02 16.3 C 7.63 g/m*3 16.3 C 0 km/h
181 05-06-2005 12:09:02 16.9 C 7.62 g/m*3 16.9 C 0 km/h
182 05-06-2005 12:21:02 16.8 C 7.58 g/m*3 16.8 C 0 km/h
183 05-06-2005 12:33:02 17.1 C 7.28 g/m*3 17.1 C 0 km/h
184 05-06-2005 12:45:02 17 C 7.52 g/m*3 17 C 0 km/h
185 05-06-2005 12:57:02 16.9 C 7.48 g/m*3 16.9 C 0 km/h
186 05-06-2005 13:09:02 16.9 C 7.48 g/m*3 16.9 C 0 km/h
187 05-06-2005 13:21:02 17 C 6.8 g/m*3 17 C 0 km/h
188 05-06-2005 13:33:02 17.2 C 6.74 g/m*3 17.2 C 0 km/h
189 05-06-2005 13:45:01 17.4 C 6.97 g/m*3 17.4 C 0 km/h
190 05-06-2005 13:57:01 17.8 C 6.98 g/m*3 17.8 C 0 km/h
191 05-06-2005 14:09:02 17.7 C 7.09 g/m*3 17.7 C 0 km/h
192 05-06-2005 14:21:02 17.3 C 6.92 g/m*3 17.3 C 0 km/h
193 05-06-2005 14:33:01 17.2 C 7.03 g/m*3 17.2 C 0 km/h
194 05-06-2005 14:45:02 17.9 C 7.02 g/m*3 17.9 C 0 km/h
195 05-06-2005 14:57:02 19 C 7.01 g/m*3 19 C 0 km/h
196 05-06-2005 15:09:02 19.3 C 7.13 g/m*3 19.3 C 0 km/h
197 05-06-2005 15:21:02 19.6 C 6.92 g/m*3 19.6 C 0 km/h
198 05-06-2005 15:33:02 19.7 C 6.96 g/m*3 19.7 C 0 km/h
199 05-06-2005 15:45:01 18.4 C 7.08 g/m*3 18.4 C 0 km/h
200 05-06-2005 15:57:01 18.1 C 7.11 g/m*3 18.1 C 0 km/h
Sensor: Nr:Datum:Temp:Abs-Feuchte:Windchill:Wind:
Aussen-T/F 201 05-06-2005 16:09:02 18 C 6.76 g/m*3 18 C 0 km/h
202 05-06-2005 16:21:02 18 C 6.6 g/m*3 18 C 0 km/h
203 05-06-2005 16:33:01 18 C 6.45 g/m*3 18 C 0 km/h
204 05-06-2005 16:45:02 18.2 C 6.68 g/m*3 18.2 C 0 km/h
205 05-06-2005 16:57:02 17.8 C 6.83 g/m*3 17.8 C 0 km/h
206 05-06-2005 17:09:02 17.4 C 6.82 g/m*3 17.4 C 0 km/h
207 05-06-2005 17:21:02 16.6 C 8.05 g/m*3 16.6 C 0 km/h
208 05-06-2005 17:33:02 16.7 C 7.53 g/m*3 16.7 C 0 km/h
209 05-06-2005 17:45:02 16.9 C 7.05 g/m*3 16.9 C 0 km/h
210 05-06-2005 17:57:03 17 C 6.95 g/m*3 17 C 0 km/h
211 05-06-2005 18:09:02 17.1 C 7.13 g/m*3 17.1 C 0 km/h
212 05-06-2005 18:21:01 17.1 C 7.28 g/m*3 17.1 C 0 km/h
213 05-06-2005 18:33:01 17.1 C 7.28 g/m*3 17.1 C 0 km/h
214 05-06-2005 18:45:02 17 C 7.38 g/m*3 17 C 0 km/h
215 05-06-2005 18:57:02 16.8 C 7.43 g/m*3 16.8 C 0 km/h
216 05-06-2005 19:09:02 16.6 C 7.49 g/m*3 16.6 C 0 km/h
217 05-06-2005 19:21:02 16.5 C 7.44 g/m*3 16.5 C 0 km/h
218 05-06-2005 19:33:03 16.5 C 7.58 g/m*3 16.5 C 0 km/h
219 05-06-2005 19:45:01 16.2 C 7.45 g/m*3 16.2 C 0 km/h
220 05-06-2005 19:57:01 16 C 7.63 g/m*3 16 C 0 km/h
221 05-06-2005 20:09:02 16 C 7.77 g/m*3 16 C 0 km/h
222 05-06-2005 20:21:03 15.8 C 7.81 g/m*3 15.8 C 0 km/h
223 05-06-2005 20:33:02 15.6 C 7.85 g/m*3 15.6 C 0 km/h
224 05-06-2005 20:45:01 15.4 C 7.75 g/m*3 15.4 C 0 km/h
225 05-06-2005 20:57:01 15.2 C 7.79 g/m*3 15.2 C 0 km/h
Sensor: Nr:Datum:Temp:Abs-Feuchte:Windchill:Wind:
Aussen-T/F 226 05-06-2005 21:09:01 15 C 7.95 g/m*3 15 C 0 km/h
227 05-06-2005 21:21:02 14.9 C 8.03 g/m*3 14.9 C 0 km/h
228 05-06-2005 21:33:02 14.6 C 8.01 g/m*3 14.6 C 0 km/h
229 05-06-2005 21:45:02 14.5 C 8.08 g/m*3 14.5 C 0 km/h
230 05-06-2005 21:57:02 14.5 C 8.08 g/m*3 14.5 C 0 km/h
231 05-06-2005 22:09:02 14.5 C 8.08 g/m*3 14.5 C 0 km/h
232 05-06-2005 22:21:02 14.5 C 8.08 g/m*3 14.5 C 0 km/h
233 05-06-2005 22:33:02 14.4 C 8.16 g/m*3 14.4 C 0 km/h
234 05-06-2005 22:45:02 14.4 C 8.16 g/m*3 14.4 C 0 km/h
235 05-06-2005 22:57:02 14.3 C 8.23 g/m*3 14.3 C 0 km/h
236 05-06-2005 23:09:02 14.2 C 8.43 g/m*3 14.2 C 0 km/h
237 05-06-2005 23:21:02 14 C 8.44 g/m*3 14 C 0 km/h
238 05-06-2005 23:33:03 14 C 8.32 g/m*3 14 C 0 km/h
239 05-06-2005 23:45:02 14 C 8.2 g/m*3 14 C 0 km/h
240 05-06-2005 23:57:02 14 C 8.2 g/m*3 14 C 0 km/h
241 06-06-2005 00:09:01 13.8 C 8.22 g/m*3 13.8 C 0 km/h
242 06-06-2005 00:21:02 13.9 C 8.39 g/m*3 13.9 C 0 km/h
243 06-06-2005 00:33:01 13.8 C 8.34 g/m*3 13.8 C 0 km/h
244 06-06-2005 00:45:02 13.8 C 8.34 g/m*3 13.8 C 0 km/h
245 06-06-2005 00:57:02 13.8 C 8.34 g/m*3 13.8 C 0 km/h
246 06-06-2005 01:09:02 13.6 C 8.36 g/m*3 13.6 C 0 km/h
247 06-06-2005 01:21:01 13.6 C 8.47 g/m*3 13.6 C 0 km/h
248 06-06-2005 01:33:01 13.6 C 8.47 g/m*3 13.6 C 0 km/h
249 06-06-2005 01:45:02 13.6 C 8.59 g/m*3 13.6 C 0 km/h
250 06-06-2005 01:57:02 13.4 C 8.6 g/m*3 13.4 C 0 km/h
Sensor: Nr:Datum:Temp:Abs-Feuchte:Windchill:Wind:
Aussen-T/F 251 06-06-2005 02:09:02 13.2 C 8.84 g/m*3 13.2 C 0 km/h
252 06-06-2005 02:21:03 13.1 C 8.79 g/m*3 13.1 C 0 km/h
253 06-06-2005 02:33:02 13.2 C 8.73 g/m*3 13.2 C 0 km/h
254 06-06-2005 02:46:04 13.2 C 8.61 g/m*3 13.2 C 0 km/h
255 06-06-2005 02:58:04 13.2 C 8.61 g/m*3 13.2 C 0 km/h
256 06-06-2005 03:10:04 13.1 C 8.56 g/m*3 13.1 C 0 km/h
257 06-06-2005 03:22:04 13 C 8.51 g/m*3 13 C 0 km/h
258 06-06-2005 03:34:02 13 C 8.51 g/m*3 13 C 0 km/h
259 06-06-2005 03:46:02 12.9 C 8.57 g/m*3 12.9 C 0 km/h
260 06-06-2005 03:58:02 12.8 C 8.51 g/m*3 12.8 C 0 km/h
261 06-06-2005 04:10:01 12.7 C 8.46 g/m*3 12.7 C 0 km/h
262 06-06-2005 04:22:02 12.5 C 8.36 g/m*3 12.5 C 0 km/h
263 06-06-2005 04:34:02 12.3 C 8.14 g/m*3 12.3 C 0 km/h
264 06-06-2005 04:46:02 12.1 C 8.04 g/m*3 12.1 C 0 km/h
265 06-06-2005 04:58:02 12 C 8.1 g/m*3 12 C 0 km/h
266 06-06-2005 05:10:02 11.9 C 7.94 g/m*3 11.9 C 0 km/h
267 06-06-2005 05:22:02 11.8 C 7.89 g/m*3 11.8 C 0 km/h
268 06-06-2005 05:34:02 11.7 C 7.84 g/m*3 11.7 C 0 km/h
269 06-06-2005 05:46:02 11.4 C 7.8 g/m*3 11.4 C 0 km/h
270 06-06-2005 05:58:02 11.3 C 7.96 g/m*3 11.3 C 0 km/h
271 06-06-2005 06:10:02 11.6 C 8 g/m*3 11.6 C 0 km/h
272 06-06-2005 06:22:02 11.7 C 8.16 g/m*3 11.7 C 0 km/h
273 06-06-2005 06:34:02 11.5 C 8.16 g/m*3 11.5 C 0 km/h
274 06-06-2005 06:46:02 11.5 C 8.26 g/m*3 11.5 C 0 km/h
275 06-06-2005 06:58:02 11.8 C 8.31 g/m*3 11.8 C 0 km/h
Sensor: Nr:Datum:Temp:Abs-Feuchte:Windchill:Wind:
Aussen-T/F 276 06-06-2005 07:10:02 12.2 C 8.2 g/m*3 12.2 C 0 km/h
277 06-06-2005 07:22:02 12.4 C 7.98 g/m*3 12.4 C 0 km/h
278 06-06-2005 07:34:02 12.6 C 7.85 g/m*3 12.6 C 0 km/h
279 06-06-2005 07:46:02 12.6 C 7.63 g/m*3 12.6 C 0 km/h
280 06-06-2005 07:58:02 13 C 7.71 g/m*3 13 C 0 km/h
281 06-06-2005 08:10:02 13 C 7.6 g/m*3 13 C 0 km/h
282 06-06-2005 08:22:02 13.4 C 7.67 g/m*3 13.4 C 0 km/h
283 06-06-2005 08:34:02 13.7 C 7.58 g/m*3 13.7 C 0 km/h
284 06-06-2005 08:46:02 14 C 7.36 g/m*3 14 C 0 km/h
285 06-06-2005 08:58:03 14.1 C 7.16 g/m*3 14.1 C 0 km/h
286 06-06-2005 09:10:02 13.8 C 7.51 g/m*3 13.8 C 0 km/h
287 06-06-2005 09:22:01 14.2 C 7.82 g/m*3 14.2 C 0 km/h
288 06-06-2005 09:34:01 14.8 C 7.6 g/m*3 14.8 C 0 km/h
289 06-06-2005 09:46:02 15.4 C 7.62 g/m*3 15.4 C 0 km/h
290 06-06-2005 09:58:02 15.2 C 7.53 g/m*3 15.2 C 0 km/h
291 06-06-2005 10:10:02 15.2 C 7.4 g/m*3 15.2 C 0 km/h
292 06-06-2005 10:22:03 15.4 C 7.75 g/m*3 15.4 C 0 km/h
293 06-06-2005 10:34:02 16.6 C 7.49 g/m*3 16.6 C 0 km/h
294 06-06-2005 10:46:02 16.4 C 7.4 g/m*3 16.4 C 0 km/h
295 06-06-2005 10:58:02 16.5 C 7.58 g/m*3 16.5 C 0 km/h
296 06-06-2005 11:10:02 17.5 C 7.9 g/m*3 17.5 C 0 km/h
297 06-06-2005 11:22:02 17.4 C 7.71 g/m*3 17.4 C 0 km/h
298 06-06-2005 11:34:01 17.9 C 7.79 g/m*3 17.9 C 0 km/h
299 06-06-2005 11:46:02 19.2 C 7.59 g/m*3 19.2 C 0 km/h
300 06-06-2005 11:58:02 17.9 C 7.48 g/m*3 17.9 C 0 km/h
Sensor: Nr:Datum:Temp:Abs-Feuchte:Windchill:Wind:
Aussen-T/F 301 06-06-2005 12:10:02 17 C 7.67 g/m*3 17 C 0 km/h
302 06-06-2005 12:22:03 15.9 C 8.4 g/m*3 15.9 C 0 km/h
303 06-06-2005 12:34:02 17.2 C 8.2 g/m*3 17.2 C 0 km/h
304 06-06-2005 12:46:02 18.6 C 8.44 g/m*3 18.6 C 0 km/h
305 06-06-2005 12:58:02 18.7 C 8.33 g/m*3 18.7 C 0 km/h
306 06-06-2005 13:10:02 18.2 C 8.08 g/m*3 18.2 C 0 km/h
307 06-06-2005 13:22:02 19.3 C 8.13 g/m*3 19.3 C 0 km/h
308 06-06-2005 13:34:01 19.6 C 8.1 g/m*3 19.6 C 0 km/h
309 06-06-2005 13:46:02 20.9 C 8.01 g/m*3 20.9 C 0 km/h
310 06-06-2005 13:58:02 19.5 C 8.22 g/m*3 19.5 C 0 km/h
311 06-06-2005 14:10:02 19.5 C 8.22 g/m*3 19.5 C 0 km/h
312 06-06-2005 14:22:02 17.5 C 8.65 g/m*3 17.5 C 0 km/h
313 06-06-2005 14:34:02 18.5 C 8.86 g/m*3 18.5 C 0 km/h
314 06-06-2005 14:46:02 20 C 8.12 g/m*3 20 C 0 km/h
315 06-06-2005 14:58:02 19.2 C 8.08 g/m*3 19.2 C 0 km/h
316 06-06-2005 15:10:02 18 C 7.99 g/m*3 18 C 0 km/h
317 06-06-2005 15:22:02 19.5 C 7.89 g/m*3 19.5 C 0 km/h
318 06-06-2005 15:34:01 19.6 C 7.93 g/m*3 19.6 C 0 km/h
319 06-06-2005 15:46:02 18.9 C 8.42 g/m*3 18.9 C 0 km/h
320 06-06-2005 15:58:02 18.7 C 8.17 g/m*3 18.7 C 0 km/h
321 06-06-2005 16:10:02 18.7 C 7.68 g/m*3 18.7 C 0 km/h
322 06-06-2005 16:22:02 19.7 C 7.81 g/m*3 19.7 C 0 km/h
323 06-06-2005 16:34:01 18.6 C 8.12 g/m*3 18.6 C 0 km/h
324 06-06-2005 16:46:02 19 C 7.99 g/m*3 19 C 0 km/h
325 06-06-2005 16:58:02 18.1 C 8.03 g/m*3 18.1 C 0 km/h
Sensor: Nr:Datum:Temp:Abs-Feuchte:Windchill:Wind:
Aussen-T/F 326 06-06-2005 17:10:02 18.3 C 7.82 g/m*3 18.3 C 0 km/h
327 06-06-2005 17:22:03 18.1 C 7.57 g/m*3 18.1 C 0 km/h
328 06-06-2005 17:34:02 19 C 7.5 g/m*3 19 C 0 km/h
329 06-06-2005 17:46:02 19.3 C 7.46 g/m*3 19.3 C 0 km/h
330 06-06-2005 17:58:02 18.2 C 7.31 g/m*3 18.2 C 0 km/h
331 06-06-2005 18:10:02 18.4 C 7.39 g/m*3 18.4 C 0 km/h
332 06-06-2005 18:22:02 18 C 7.07 g/m*3 18 C 0 km/h
333 06-06-2005 18:34:01 17.3 C 7.22 g/m*3 17.3 C 0 km/h
334 06-06-2005 18:46:02 16.9 C 7.05 g/m*3 16.9 C 0 km/h
335 06-06-2005 18:58:02 16.6 C 7.35 g/m*3 16.6 C 0 km/h
336 06-06-2005 19:10:02 16.3 C 7.21 g/m*3 16.3 C 0 km/h
337 06-06-2005 19:22:02 16.1 C 6.72 g/m*3 16.1 C 0 km/h
338 06-06-2005 19:34:04 16 C 6.54 g/m*3 16 C 0 km/h
339 06-06-2005 19:46:02 16.4 C 6.42 g/m*3 16.4 C 0 km/h
340 06-06-2005 19:58:02 17 C 6.22 g/m*3 17 C 0 km/h
341 06-06-2005 20:10:03 16.4 C 6.28 g/m*3 16.4 C 0 km/h
342 06-06-2005 20:22:03 16 C 6.27 g/m*3 16 C 0 km/h
343 06-06-2005 20:34:03 15.6 C 6.52 g/m*3 15.6 C 0 km/h
344 06-06-2005 20:46:02 15.1 C 6.45 g/m*3 15.1 C 0 km/h
345 06-06-2005 20:58:02 15 C 6.54 g/m*3 15 C 0 km/h
346 06-06-2005 21:10:02 15 C 6.8 g/m*3 15 C 0 km/h
347 06-06-2005 21:22:03 14.7 C 6.8 g/m*3 14.7 C 0 km/h
348 06-06-2005 21:34:03 14.3 C 6.76 g/m*3 14.3 C 0 km/h
349 06-06-2005 21:46:02 13.9 C 6.47 g/m*3 13.9 C 0 km/h
350 06-06-2005 21:58:02 13.5 C 6.55 g/m*3 13.5 C 0 km/h
Sensor: Nr:Datum:Temp:Abs-Feuchte:Windchill:Wind:
Aussen-T/F 351 06-06-2005 22:10:02 13.4 C 6.63 g/m*3 13.4 C 0 km/h
352 06-06-2005 22:22:02 13.4 C 6.63 g/m*3 13.4 C 0 km/h
353 06-06-2005 22:34:02 13.3 C 6.59 g/m*3 13.3 C 0 km/h
354 06-06-2005 22:46:02 13.5 C 6.55 g/m*3 13.5 C 0 km/h
355 06-06-2005 22:58:02 13.4 C 6.39 g/m*3 13.4 C 0 km/h
356 06-06-2005 23:10:01 13.2 C 6.32 g/m*3 13.2 C 0 km/h
357 06-06-2005 23:22:02 13.1 C 6.28 g/m*3 13.1 C 0 km/h
358 06-06-2005 23:34:01 12.9 C 6.09 g/m*3 12.9 C 0 km/h
359 06-06-2005 23:46:02 12.9 C 5.86 g/m*3 12.9 C 0 km/h
360 06-06-2005 23:58:02 12.4 C 5.46 g/m*3 12.4 C 0 km/h
361 07-06-2005 00:10:02 12.3 C 5.32 g/m*3 12.3 C 0 km/h
362 07-06-2005 00:22:02 12.2 C 5.4 g/m*3 12.2 C 0 km/h
363 07-06-2005 00:34:02 11.9 C 5.4 g/m*3 11.9 C 0 km/h
364 07-06-2005 00:46:02 11.5 C 5.27 g/m*3 11.5 C 0 km/h
365 07-06-2005 00:58:02 11 C 5.2 g/m*3 11 C 0 km/h
366 07-06-2005 01:10:02 10.7 C 5.21 g/m*3 10.7 C 0 km/h
367 07-06-2005 01:22:03 10.4 C 5.3 g/m*3 10.4 C 0 km/h
368 07-06-2005 01:34:02 10.2 C 5.33 g/m*3 10.2 C 0 km/h
369 07-06-2005 01:46:02 10.2 C 5.42 g/m*3 10.2 C 0 km/h
370 07-06-2005 01:58:02 10.1 C 5.48 g/m*3 10.1 C 0 km/h
371 07-06-2005 02:10:02 10.2 C 5.52 g/m*3 10.2 C 0 km/h
372 07-06-2005 02:22:02 10.2 C 5.42 g/m*3 10.2 C 0 km/h
373 07-06-2005 02:34:03 10 C 5.45 g/m*3 10 C 0 km/h
374 07-06-2005 02:47:04 10.1 C 5.3 g/m*3 10.1 C 0 km/h
375 07-06-2005 02:59:04 10.3 C 5.17 g/m*3 10.3 C 0 km/h
Sensor: Nr:Datum:Temp:Abs-Feuchte:Windchill:Wind:
Aussen-T/F 376 07-06-2005 03:11:03 10.2 C 4.95 g/m*3 10.2 C 0 km/h
377 07-06-2005 03:23:03 10 C 4.98 g/m*3 10 C 0 km/h
378 07-06-2005 03:35:02 9.9 C 4.76 g/m*3 9.9 C 0 km/h
379 07-06-2005 03:47:02 9.6 C 4.58 g/m*3 9.6 C 0 km/h
380 07-06-2005 03:59:02 9.3 C 4.58 g/m*3 9.3 C 0 km/h
381 07-06-2005 04:11:02 9 C 4.58 g/m*3 9 C 0 km/h
382 07-06-2005 04:23:03 9 C 4.67 g/m*3 9 C 0 km/h
383 07-06-2005 04:35:02 8.9 C 4.82 g/m*3 8.9 C 0 km/h
384 07-06-2005 04:47:02 9 C 4.85 g/m*3 9 C 0 km/h
385 07-06-2005 04:59:02 8.7 C 5.1 g/m*3 8.7 C 0 km/h
386 07-06-2005 05:11:02 8.6 C 5.16 g/m*3 8.6 C 0 km/h
387 07-06-2005 05:23:02 8.5 C 5.12 g/m*3 8.5 C 0 km/h
388 07-06-2005 05:35:02 8.5 C 5.21 g/m*3 8.5 C 0 km/h
389 07-06-2005 05:47:02 8.4 C 5.17 g/m*3 8.4 C 0 km/h
390 07-06-2005 05:59:02 8.5 C 5.29 g/m*3 8.5 C 0 km/h
391 07-06-2005 06:11:02 8.7 C 5.28 g/m*3 8.7 C 0 km/h
392 07-06-2005 06:23:02 8.9 C 5.34 g/m*3 8.9 C 0 km/h
393 07-06-2005 06:35:02 9 C 5.2 g/m*3 9 C 0 km/h
394 07-06-2005 06:47:01 9.1 C 5.23 g/m*3 9.1 C 0 km/h
395 07-06-2005 06:59:01 9.2 C 5.18 g/m*3 9.2 C 0 km/h
396 07-06-2005 07:11:02 9.2 C 5.09 g/m*3 9.2 C 0 km/h
397 07-06-2005 07:23:01 9.3 C 5.12 g/m*3 9.3 C 0 km/h
398 07-06-2005 07:35:02 9.5 C 5.1 g/m*3 9.5 C 0 km/h
399 07-06-2005 07:47:02 10 C 4.98 g/m*3 10 C 0 km/h
400 07-06-2005 07:59:02 10.2 C 5.04 g/m*3 10.2 C 0 km/h
Sensor: Nr:Datum:Temp:Abs-Feuchte:Windchill:Wind:
Aussen-T/F 401 07-06-2005 08:11:02 10.3 C 4.98 g/m*3 10.3 C 0 km/h
402 07-06-2005 08:23:02 10.4 C 4.82 g/m*3 10.4 C 0 km/h
403 07-06-2005 08:35:02 10.2 C 5.04 g/m*3 10.2 C 0 km/h
404 07-06-2005 08:47:02 10.3 C 5.17 g/m*3 10.3 C 0 km/h
405 07-06-2005 08:59:02 11 C 5.1 g/m*3 11 C 0 km/h
406 07-06-2005 09:11:01 11.5 C 5.16 g/m*3 11.5 C 0 km/h
407 07-06-2005 09:23:02 11.2 C 5.07 g/m*3 11.2 C 0 km/h
408 07-06-2005 09:35:01 11.4 C 5.13 g/m*3 11.4 C 0 km/h
409 07-06-2005 09:47:02 11.7 C 4.81 g/m*3 11.7 C 0 km/h
410 07-06-2005 09:59:02 11.7 C 4.71 g/m*3 11.7 C 0 km/h
411 07-06-2005 10:11:02 11.5 C 4.75 g/m*3 11.5 C 0 km/h
412 07-06-2005 10:23:02 11.9 C 4.66 g/m*3 11.9 C 0 km/h
413 07-06-2005 10:35:02 12.2 C 4.75 g/m*3 12.2 C 0 km/h
414 07-06-2005 10:47:02 11.5 C 4.75 g/m*3 11.5 C 0 km/h
415 07-06-2005 10:59:02 11.8 C 4.95 g/m*3 11.8 C 0 km/h
416 07-06-2005 11:11:02 12.3 C 4.78 g/m*3 12.3 C 0 km/h
417 07-06-2005 11:23:01 12.8 C 4.7 g/m*3 12.8 C 0 km/h
418 07-06-2005 11:35:02 12.1 C 4.72 g/m*3 12.1 C 0 km/h
419 07-06-2005 11:47:02 12.8 C 5.04 g/m*3 12.8 C 0 km/h
420 07-06-2005 11:59:02 13.1 C 4.91 g/m*3 13.1 C 0 km/h
421 07-06-2005 12:11:01 13.3 C 4.51 g/m*3 13.3 C 0 km/h
422 07-06-2005 12:23:01 13.3 C 4.51 g/m*3 13.3 C 0 km/h
423 07-06-2005 12:35:02 13.5 C 5.03 g/m*3 13.5 C 0 km/h
424 07-06-2005 12:47:02 13.9 C 4.56 g/m*3 13.9 C 0 km/h
425 07-06-2005 12:59:02 14.4 C 4.7 g/m*3 14.4 C 0 km/h
Sensor: Nr:Datum:Temp:Abs-Feuchte:Windchill:Wind:
Aussen-T/F 426 07-06-2005 13:11:01 14.2 C 4.64 g/m*3 14.2 C 0 km/h
427 07-06-2005 13:23:01 15.3 C 4.57 g/m*3 15.3 C 0 km/h
428 07-06-2005 13:35:02 15.4 C 4.34 g/m*3 15.4 C 0 km/h
429 07-06-2005 13:47:02 14.2 C 4.4 g/m*3 14.2 C 0 km/h
430 07-06-2005 13:59:02 14.5 C 4.35 g/m*3 14.5 C 0 km/h
431 07-06-2005 14:11:02 13.9 C 4.44 g/m*3 13.9 C 0 km/h
432 07-06-2005 14:23:02 14.3 C 4.18 g/m*3 14.3 C 0 km/h
433 07-06-2005 14:35:02 14 C 4.22 g/m*3 14 C 0 km/h
434 07-06-2005 14:47:02 14.8 C 4.43 g/m*3 14.8 C 0 km/h
435 07-06-2005 14:59:02 14.7 C 4.15 g/m*3 14.7 C 0 km/h
436 07-06-2005 15:11:01 15.3 C 3.92 g/m*3 15.3 C 0 km/h
437 07-06-2005 15:23:02 16.9 C 3.74 g/m*3 16.9 C 0 km/h
438 07-06-2005 15:35:01 15.3 C 3.79 g/m*3 15.3 C 0 km/h
439 07-06-2005 15:47:02 15.9 C 4.06 g/m*3 15.9 C 0 km/h
440 07-06-2005 15:59:02 15.6 C 4.12 g/m*3 15.6 C 0 km/h
441 07-06-2005 16:11:02 16.4 C 4.33 g/m*3 16.4 C 0 km/h
442 07-06-2005 16:23:02 17.4 C 4.3 g/m*3 17.4 C 0 km/h
443 07-06-2005 16:35:01 17.2 C 4.39 g/m*3 17.2 C 0 km/h
444 07-06-2005 16:47:02 15.6 C 4.26 g/m*3 15.6 C 0 km/h
445 07-06-2005 16:59:02 15.4 C 4.2 g/m*3 15.4 C 0 km/h
446 07-06-2005 17:11:03 15.5 C 4.23 g/m*3 15.5 C 0 km/h
447 07-06-2005 17:23:02 16.5 C 4.49 g/m*3 16.5 C 0 km/h
448 07-06-2005 17:35:04 16.7 C 4.26 g/m*3 16.7 C 0 km/h
449 07-06-2005 17:47:03 18 C 4.61 g/m*3 18 C 0 km/h
450 07-06-2005 17:59:03 17.5 C 4.47 g/m*3 17.5 C 0 km/h
Sensor: Nr:Datum:Temp:Abs-Feuchte:Windchill:Wind:
Aussen-T/F 451 07-06-2005 18:11:05 16.5 C 4.35 g/m*3 16.5 C 0 km/h
452 07-06-2005 18:23:03 15.9 C 4.2 g/m*3 15.9 C 0 km/h
453 07-06-2005 18:35:04 15.7 C 4.15 g/m*3 15.7 C 0 km/h
454 07-06-2005 18:47:03 14.8 C 4.43 g/m*3 14.8 C 0 km/h
455 07-06-2005 18:59:03 15.2 C 4.67 g/m*3 15.2 C 0 km/h
456 07-06-2005 19:11:03 15.6 C 4.52 g/m*3 15.6 C 0 km/h
457 07-06-2005 19:23:02 15.4 C 4.6 g/m*3 15.4 C 0 km/h
458 07-06-2005 19:35:02 15.5 C 4.63 g/m*3 15.5 C 0 km/h
459 07-06-2005 19:47:02 15.4 C 4.6 g/m*3 15.4 C 0 km/h
460 07-06-2005 19:59:02 14.8 C 4.69 g/m*3 14.8 C 0 km/h
461 07-06-2005 20:11:03 14.5 C 4.73 g/m*3 14.5 C 0 km/h
462 07-06-2005 20:23:02 14.5 C 4.97 g/m*3 14.5 C 0 km/h
463 07-06-2005 20:35:06 14.4 C 4.94 g/m*3 14.4 C 0 km/h
464 07-06-2005 20:47:02 14.3 C 5.04 g/m*3 14.3 C 0 km/h
465 07-06-2005 20:59:02 13.8 C 5.12 g/m*3 13.8 C 0 km/h
466 07-06-2005 21:11:05 13.4 C 5.35 g/m*3 13.4 C 0 km/h
467 07-06-2005 21:23:03 12.9 C 5.18 g/m*3 12.9 C 0 km/h
468 07-06-2005 21:35:05 12.3 C 5.21 g/m*3 12.3 C 0 km/h
469 07-06-2005 21:47:03 11.9 C 5.4 g/m*3 11.9 C 0 km/h
470 07-06-2005 21:59:03 11.5 C 5.47 g/m*3 11.5 C 0 km/h
471 07-06-2005 22:11:03 11.2 C 5.47 g/m*3 11.2 C 0 km/h
472 07-06-2005 22:23:03 10.8 C 5.54 g/m*3 10.8 C 0 km/h
473 07-06-2005 22:35:02 10.6 C 5.66 g/m*3 10.6 C 0 km/h
474 07-06-2005 22:47:02 10.4 C 5.69 g/m*3 10.4 C 0 km/h
475 07-06-2005 22:59:02 10.1 C 5.77 g/m*3 10.1 C 0 km/h
Sensor: Nr:Datum:Temp:Abs-Feuchte:Windchill:Wind:
Aussen-T/F 476 07-06-2005 23:11:03 10 C 5.83 g/m*3 10 C 0 km/h
477 07-06-2005 23:23:02 9.9 C 5.79 g/m*3 9.9 C 0 km/h
478 07-06-2005 23:35:02 9.8 C 5.94 g/m*3 9.8 C 0 km/h
479 07-06-2005 23:47:01 9.6 C 5.86 g/m*3 9.6 C 0 km/h
480 07-06-2005 23:59:01 9.4 C 5.88 g/m*3 9.4 C 0 km/h
481 08-06-2005 00:11:01 9.1 C 6.03 g/m*3 9.1 C 0 km/h
482 08-06-2005 00:23:02 8.9 C 6.13 g/m*3 8.9 C 0 km/h
483 08-06-2005 00:35:01 8.7 C 6.14 g/m*3 8.7 C 0 km/h
484 08-06-2005 00:47:02 8.4 C 6.11 g/m*3 8.4 C 0 km/h
485 08-06-2005 00:59:02 8.2 C 6.11 g/m*3 8.2 C 0 km/h
486 08-06-2005 01:11:01 8.1 C 6.07 g/m*3 8.1 C 0 km/h
487 08-06-2005 01:23:02 8.1 C 6.16 g/m*3 8.1 C 0 km/h
488 08-06-2005 01:35:01 7.9 C 6.24 g/m*3 7.9 C 0 km/h
489 08-06-2005 01:47:01 7.8 C 6.2 g/m*3 7.8 C 0 km/h
490 08-06-2005 01:59:01 7.8 C 6.28 g/m*3 7.8 C 0 km/h
491 08-06-2005 02:11:02 7.6 C 6.12 g/m*3 7.6 C 0 km/h
492 08-06-2005 02:23:01 7.3 C 6.24 g/m*3 7.3 C 0 km/h
493 08-06-2005 02:35:02 7.2 C 6.36 g/m*3 7.2 C 0 km/h
494 08-06-2005 02:48:04 7 C 6.2 g/m*3 7 C 0 km/h
495 08-06-2005 03:00:04 6.9 C 6.31 g/m*3 6.9 C 0 km/h
496 08-06-2005 03:12:04 6.7 C 6.31 g/m*3 6.7 C 0 km/h
497 08-06-2005 03:24:04 6.7 C 6.31 g/m*3 6.7 C 0 km/h
498 08-06-2005 03:36:01 6.6 C 6.27 g/m*3 6.6 C 0 km/h
499 08-06-2005 03:48:01 6.5 C 6.3 g/m*3 6.5 C 0 km/h
500 08-06-2005 04:00:01 6.5 C 6.3 g/m*3 6.5 C 0 km/h
Sensor: Nr:Datum:Temp:Abs-Feuchte:Windchill:Wind:
Aussen-T/F 501 08-06-2005 04:12:02 6.4 C 6.33 g/m*3 6.4 C 0 km/h
502 08-06-2005 04:24:02 6.3 C 6.29 g/m*3 6.3 C 0 km/h
503 08-06-2005 04:36:01 6.3 C 6.29 g/m*3 6.3 C 0 km/h
504 08-06-2005 04:48:02 6.1 C 6.28 g/m*3 6.1 C 0 km/h
505 08-06-2005 05:00:02 6.1 C 6.28 g/m*3 6.1 C 0 km/h
506 08-06-2005 05:12:02 6 C 6.31 g/m*3 6 C 0 km/h
507 08-06-2005 05:24:02 5.8 C 6.3 g/m*3 5.8 C 0 km/h
508 08-06-2005 05:36:02 5.7 C 6.26 g/m*3 5.7 C 0 km/h
509 08-06-2005 05:48:02 5.8 C 6.38 g/m*3 5.8 C 0 km/h
510 08-06-2005 06:00:03 5.6 C 6.29 g/m*3 5.6 C 0 km/h
511 08-06-2005 06:12:02 5.6 C 6.29 g/m*3 5.6 C 0 km/h
512 08-06-2005 06:24:02 5.6 C 6.29 g/m*3 5.6 C 0 km/h
513 08-06-2005 06:36:02 5.8 C 6.38 g/m*3 5.8 C 0 km/h
514 08-06-2005 06:48:06 5.8 C 6.38 g/m*3 5.8 C 0 km/h
515 08-06-2005 07:00:06 5.9 C 6.42 g/m*3 5.9 C 0 km/h
516 08-06-2005 07:12:02 6.2 C 6.55 g/m*3 6.2 C 0 km/h
517 08-06-2005 07:24:01 6.4 C 6.56 g/m*3 6.4 C 0 km/h
518 08-06-2005 07:36:02 6.7 C 6.61 g/m*3 6.7 C 0 km/h
519 08-06-2005 07:48:02 6.9 C 6.7 g/m*3 6.9 C 0 km/h
520 08-06-2005 08:00:02 7.3 C 6.72 g/m*3 7.3 C 0 km/h
521 08-06-2005 08:12:02 7.8 C 6.86 g/m*3 7.8 C 0 km/h
522 08-06-2005 08:24:02 8.3 C 6.83 g/m*3 8.3 C 0 km/h
523 08-06-2005 08:36:02 8.5 C 6.66 g/m*3 8.5 C 0 km/h
524 08-06-2005 08:48:02 9.1 C 6.48 g/m*3 9.1 C 0 km/h
525 08-06-2005 09:00:02 9.3 C 6.56 g/m*3 9.3 C 0 km/h
Sensor: Nr:Datum:Temp:Abs-Feuchte:Windchill:Wind:
Aussen-T/F 526 08-06-2005 09:12:03 10 C 6.67 g/m*3 10 C 0 km/h
527 08-06-2005 09:24:02 10.6 C 6.73 g/m*3 10.6 C 0 km/h
528 08-06-2005 09:36:02 11.2 C 6.69 g/m*3 11.2 C 0 km/h
529 08-06-2005 09:48:01 11.8 C 6.74 g/m*3 11.8 C 0 km/h
530 08-06-2005 10:00:01 12.4 C 6.56 g/m*3 12.4 C 0 km/h
531 08-06-2005 10:12:01 12.5 C 6.27 g/m*3 12.5 C 0 km/h
532 08-06-2005 10:24:01 12.9 C 6.09 g/m*3 12.9 C 0 km/h
533 08-06-2005 10:36:01 13 C 5.78 g/m*3 13 C 0 km/h
534 08-06-2005 10:48:01 13.2 C 5.63 g/m*3 13.2 C 0 km/h
535 08-06-2005 11:00:01 13.5 C 5.61 g/m*3 13.5 C 0 km/h
536 08-06-2005 11:12:02 13.7 C 5.45 g/m*3 13.7 C 0 km/h
537 08-06-2005 11:24:01 14.5 C 5.35 g/m*3 14.5 C 0 km/h
538 08-06-2005 11:36:02 13.9 C 5.63 g/m*3 13.9 C 0 km/h
539 08-06-2005 11:48:01 15.1 C 5.29 g/m*3 15.1 C 0 km/h
540 08-06-2005 12:00:01 16.5 C 5.34 g/m*3 16.5 C 0 km/h
541 08-06-2005 12:12:01 16.3 C 4.99 g/m*3 16.3 C 0 km/h
542 08-06-2005 12:24:01 16.6 C 5.09 g/m*3 16.6 C 0 km/h
543 08-06-2005 12:36:02 16.7 C 5.12 g/m*3 16.7 C 0 km/h
544 08-06-2005 12:48:02 16.8 C 4.86 g/m*3 16.8 C 0 km/h
545 08-06-2005 13:00:02 18.7 C 5.28 g/m*3 18.7 C 0 km/h
546 08-06-2005 13:12:02 19 C 4.89 g/m*3 19 C 0 km/h
547 08-06-2005 13:24:02 19.4 C 5.01 g/m*3 19.4 C 0 km/h
548 08-06-2005 13:36:02 17.8 C 5.16 g/m*3 17.8 C 0 km/h
549 08-06-2005 13:48:02 19 C 4.56 g/m*3 19 C 0 km/h
550 08-06-2005 14:00:02 19.9 C 5.15 g/m*3 19.9 C 0 km/h
Sensor: Nr:Datum:Temp:Abs-Feuchte:Windchill:Wind:
Aussen-T/F 551 08-06-2005 14:12:02 18.6 C 4.62 g/m*3 18.6 C 0 km/h
552 08-06-2005 14:24:01 19 C 4.73 g/m*3 19 C 0 km/h
553 08-06-2005 14:36:01 18.6 C 4.77 g/m*3 18.6 C 0 km/h
554 08-06-2005 14:48:01 20.1 C 5.04 g/m*3 20.1 C 0 km/h
555 08-06-2005 15:00:01 20.6 C 4.65 g/m*3 20.6 C 0 km/h
556 08-06-2005 15:12:02 18.6 C 4.62 g/m*3 18.6 C 0 km/h
557 08-06-2005 15:24:02 19.7 C 4.75 g/m*3 19.7 C 0 km/h
558 08-06-2005 15:36:01 19.7 C 4.58 g/m*3 19.7 C 0 km/h
559 08-06-2005 15:48:02 19.7 C 4.42 g/m*3 19.7 C 0 km/h
560 08-06-2005 16:00:02 19.9 C 4.47 g/m*3 19.9 C 0 km/h
561 08-06-2005 16:12:02 20 C 4.32 g/m*3 20 C 0 km/h
562 08-06-2005 16:24:02 20.5 C 4.27 g/m*3 20.5 C 0 km/h
563 08-06-2005 16:36:01 21.1 C 4.05 g/m*3 21.1 C 0 km/h
564 08-06-2005 16:48:01 22 C 4.08 g/m*3 22 C 0 km/h
565 08-06-2005 17:00:01 22.3 C 3.95 g/m*3 22.3 C 0 km/h
566 08-06-2005 17:12:02 22.2 C 3.93 g/m*3 22.2 C 0 km/h
567 08-06-2005 17:24:01 21.4 C 4.5 g/m*3 21.4 C 0 km/h
568 08-06-2005 17:36:02 22.7 C 4.04 g/m*3 22.7 C 0 km/h
569 08-06-2005 17:48:02 21.8 C 4.03 g/m*3 21.8 C 0 km/h
570 08-06-2005 18:00:02 22.2 C 4.12 g/m*3 22.2 C 0 km/h
571 08-06-2005 18:12:02 21.3 C 4.29 g/m*3 21.3 C 0 km/h
572 08-06-2005 18:24:02 20.7 C 4.5 g/m*3 20.7 C 0 km/h
573 08-06-2005 18:36:02 21.4 C 4.5 g/m*3 21.4 C 0 km/h
574 08-06-2005 18:48:01 20 C 4.67 g/m*3 20 C 0 km/h
575 08-06-2005 19:00:01 20.4 C 4.42 g/m*3 20.4 C 0 km/h
Sensor: Nr:Datum:Temp:Abs-Feuchte:Windchill:Wind:
Aussen-T/F 576 08-06-2005 19:12:02 21 C 4.58 g/m*3 21 C 0 km/h
577 08-06-2005 19:24:01 20.8 C 4.35 g/m*3 20.8 C 0 km/h
578 08-06-2005 19:36:02 20.9 C 4.37 g/m*3 20.9 C 0 km/h
579 08-06-2005 19:48:02 19.8 C 4.78 g/m*3 19.8 C 0 km/h
580 08-06-2005 20:00:02 18.8 C 4.83 g/m*3 18.8 C 0 km/h
581 08-06-2005 20:12:02 18.3 C 5 g/m*3 18.3 C 0 km/h
582 08-06-2005 20:24:02 17.5 C 5.22 g/m*3 17.5 C 0 km/h
583 08-06-2005 20:36:02 16.8 C 5.15 g/m*3 16.8 C 0 km/h
584 08-06-2005 20:48:01 16.3 C 5.27 g/m*3 16.3 C 0 km/h
585 08-06-2005 21:00:01 15.9 C 5.28 g/m*3 15.9 C 0 km/h
586 08-06-2005 21:12:02 15.7 C 5.35 g/m*3 15.7 C 0 km/h
587 08-06-2005 21:24:01 15.2 C 5.32 g/m*3 15.2 C 0 km/h
588 08-06-2005 21:36:02 15.1 C 5.29 g/m*3 15.1 C 0 km/h
589 08-06-2005 21:48:02 14.9 C 5.48 g/m*3 14.9 C 0 km/h
590 08-06-2005 22:00:02 14.9 C 5.61 g/m*3 14.9 C 0 km/h
591 08-06-2005 22:12:02 14.6 C 5.63 g/m*3 14.6 C 0 km/h
592 08-06-2005 22:24:02 14.5 C 5.6 g/m*3 14.5 C 0 km/h
593 08-06-2005 22:36:02 14.4 C 5.69 g/m*3 14.4 C 0 km/h
594 08-06-2005 22:48:02 14.3 C 5.65 g/m*3 14.3 C 0 km/h
595 08-06-2005 23:00:02 14.4 C 5.81 g/m*3 14.4 C 0 km/h
596 08-06-2005 23:12:02 14.2 C 5.86 g/m*3 14.2 C 0 km/h
597 08-06-2005 23:24:02 14 C 6.03 g/m*3 14 C 0 km/h
598 08-06-2005 23:36:02 13.7 C 6.16 g/m*3 13.7 C 0 km/h
599 08-06-2005 23:48:02 13.5 C 6.2 g/m*3 13.5 C 0 km/h
600 09-06-2005 00:00:02 13 C 6.12 g/m*3 13 C 0 km/h
Sensor: Nr:Datum:Temp:Abs-Feuchte:Windchill:Wind:
Aussen-T/F 601 09-06-2005 00:12:02 12.8 C 6.27 g/m*3 12.8 C 0 km/h
602 09-06-2005 00:24:02 12.7 C 6.23 g/m*3 12.7 C 0 km/h
603 09-06-2005 00:36:02 12.4 C 6.23 g/m*3 12.4 C 0 km/h
604 09-06-2005 00:48:02 12.1 C 6.11 g/m*3 12.1 C 0 km/h
605 09-06-2005 01:00:02 12.1 C 6.22 g/m*3 12.1 C 0 km/h
606 09-06-2005 01:12:01 11.8 C 6.31 g/m*3 11.8 C 0 km/h
607 09-06-2005 01:24:02 11.4 C 6.26 g/m*3 11.4 C 0 km/h
608 09-06-2005 01:36:01 11.1 C 6.25 g/m*3 11.1 C 0 km/h
609 09-06-2005 01:48:01 10.8 C 6.33 g/m*3 10.8 C 0 km/h
610 09-06-2005 02:00:01 10.9 C 6.47 g/m*3 10.9 C 0 km/h
611 09-06-2005 02:12:02 10.7 C 6.58 g/m*3 10.7 C 0 km/h
612 09-06-2005 02:24:01 10.3 C 6.42 g/m*3 10.3 C 0 km/h
613 09-06-2005 02:36:02 10.1 C 6.43 g/m*3 10.1 C 0 km/h
614 09-06-2005 02:49:03 9.8 C 6.49 g/m*3 9.8 C 0 km/h
615 09-06-2005 03:01:03 9.7 C 6.55 g/m*3 9.7 C 0 km/h
616 09-06-2005 03:13:03 9.5 C 6.55 g/m*3 9.5 C 0 km/h
617 09-06-2005 03:25:03 9.2 C 6.52 g/m*3 9.2 C 0 km/h
618 09-06-2005 03:37:02 9.1 C 6.48 g/m*3 9.1 C 0 km/h
619 09-06-2005 03:49:02 8.8 C 6.53 g/m*3 8.8 C 0 km/h
620 09-06-2005 04:01:02 8.7 C 6.66 g/m*3 8.7 C 0 km/h
621 09-06-2005 04:13:02 8.4 C 6.62 g/m*3 8.4 C 0 km/h
622 09-06-2005 04:25:02 8.2 C 6.62 g/m*3 8.2 C 0 km/h
623 09-06-2005 04:37:02 8.1 C 6.57 g/m*3 8.1 C 0 km/h
624 09-06-2005 04:49:01 8.1 C 6.66 g/m*3 8.1 C 0 km/h
625 09-06-2005 05:01:02 8 C 6.7 g/m*3 8 C 0 km/h
Sensor: Nr:Datum:Temp:Abs-Feuchte:Windchill:Wind:
Aussen-T/F 626 09-06-2005 05:13:02 7.7 C 6.73 g/m*3 7.7 C 0 km/h
627 09-06-2005 05:25:02 7.6 C 6.69 g/m*3 7.6 C 0 km/h
628 09-06-2005 05:37:02 7.4 C 6.68 g/m*3 7.4 C 0 km/h
629 09-06-2005 05:49:01 7.4 C 6.6 g/m*3 7.4 C 0 km/h
630 09-06-2005 06:01:02 7.4 C 6.68 g/m*3 7.4 C 0 km/h
631 09-06-2005 06:13:02 7.4 C 6.68 g/m*3 7.4 C 0 km/h
632 09-06-2005 06:25:01 7.4 C 6.76 g/m*3 7.4 C 0 km/h
633 09-06-2005 06:37:02 7.6 C 6.85 g/m*3 7.6 C 0 km/h
634 09-06-2005 06:49:01 7.8 C 6.86 g/m*3 7.8 C 0 km/h
635 09-06-2005 07:01:02 7.8 C 6.86 g/m*3 7.8 C 0 km/h
636 09-06-2005 07:13:02 8.1 C 6.91 g/m*3 8.1 C 0 km/h
637 09-06-2005 07:25:02 8.4 C 6.87 g/m*3 8.4 C 0 km/h
638 09-06-2005 07:37:02 8.6 C 6.87 g/m*3 8.6 C 0 km/h
639 09-06-2005 07:49:01 8.9 C 7.01 g/m*3 8.9 C 0 km/h
640 09-06-2005 08:01:02 9.2 C 6.97 g/m*3 9.2 C 0 km/h
641 09-06-2005 08:13:02 9.7 C 7.1 g/m*3 9.7 C 0 km/h
642 09-06-2005 08:25:01 10.1 C 7.09 g/m*3 10.1 C 0 km/h
643 09-06-2005 08:37:02 10.5 C 7.08 g/m*3 10.5 C 0 km/h
644 09-06-2005 08:49:02 11 C 7.01 g/m*3 11 C 0 km/h
645 09-06-2005 09:01:02 11.4 C 7.08 g/m*3 11.4 C 0 km/h
646 09-06-2005 09:13:02 12 C 7.03 g/m*3 12 C 0 km/h
647 09-06-2005 09:25:02 12.6 C 6.97 g/m*3 12.6 C 0 km/h
648 09-06-2005 09:37:02 13.3 C 7.05 g/m*3 13.3 C 0 km/h
649 09-06-2005 09:49:01 13.7 C 7.1 g/m*3 13.7 C 0 km/h
650 09-06-2005 10:01:02 14.4 C 7.05 g/m*3 14.4 C 0 km/h
Sensor: Nr:Datum:Temp:Abs-Feuchte:Windchill:Wind:
Aussen-T/F 651 09-06-2005 10:13:02 14.9 C 7.01 g/m*3 14.9 C 0 km/h
652 09-06-2005 10:25:02 15.8 C 7 g/m*3 15.8 C 0 km/h
653 09-06-2005 10:37:01 15.9 C 7.04 g/m*3 15.9 C 0 km/h
654 09-06-2005 10:49:01 16 C 6.68 g/m*3 16 C 0 km/h
655 09-06-2005 11:01:02 16.2 C 6.34 g/m*3 16.2 C 0 km/h
656 09-06-2005 11:13:02 16.5 C 6.18 g/m*3 16.5 C 0 km/h
657 09-06-2005 11:25:02 17.2 C 5.71 g/m*3 17.2 C 0 km/h
658 09-06-2005 11:37:01 17.9 C 5.65 g/m*3 17.9 C 0 km/h
659 09-06-2005 11:49:02 18 C 5.53 g/m*3 18 C 0 km/h
660 09-06-2005 12:01:03 19.3 C 5.64 g/m*3 19.3 C 0 km/h
661 09-06-2005 12:13:03 20.7 C 5.58 g/m*3 20.7 C 0 km/h
662 09-06-2005 12:25:02 20 C 5.18 g/m*3 20 C 0 km/h
663 09-06-2005 12:37:02 20.2 C 5.42 g/m*3 20.2 C 0 km/h
664 09-06-2005 12:49:01 21.2 C 5.19 g/m*3 21.2 C 0 km/h
665 09-06-2005 13:01:02 20.2 C 5.25 g/m*3 20.2 C 0 km/h
666 09-06-2005 13:13:02 20.6 C 5.37 g/m*3 20.6 C 0 km/h
667 09-06-2005 13:25:01 20 C 5.18 g/m*3 20 C 0 km/h
668 09-06-2005 13:37:02 20.9 C 4.74 g/m*3 20.9 C 0 km/h
669 09-06-2005 13:49:02 20.8 C 5.43 g/m*3 20.8 C 0 km/h
670 09-06-2005 14:01:02 20.9 C 4.92 g/m*3 20.9 C 0 km/h
671 09-06-2005 14:13:02 20.6 C 4.83 g/m*3 20.6 C 0 km/h
672 09-06-2005 14:25:02 20.5 C 5.34 g/m*3 20.5 C 0 km/h
673 09-06-2005 14:37:02 21.5 C 5.47 g/m*3 21.5 C 0 km/h
674 09-06-2005 14:49:02 21.7 C 4.96 g/m*3 21.7 C 0 km/h
675 09-06-2005 15:01:02 21.1 C 5.16 g/m*3 21.1 C 0 km/h
Sensor: Nr:Datum:Temp:Abs-Feuchte:Windchill:Wind:
Aussen-T/F 676 09-06-2005 15:13:02 22 C 5.05 g/m*3 22 C 0 km/h
677 09-06-2005 15:25:02 22.8 C 5.28 g/m*3 22.8 C 0 km/h
678 09-06-2005 15:37:02 23.8 C 4.95 g/m*3 23.8 C 0 km/h
679 09-06-2005 15:49:02 24.6 C 4.73 g/m*3 24.6 C 0 km/h
680 09-06-2005 16:01:02 23.9 C 4.76 g/m*3 23.9 C 0 km/h
681 09-06-2005 16:13:02 24.1 C 4.59 g/m*3 24.1 C 0 km/h
682 09-06-2005 16:25:02 25.1 C 4.86 g/m*3 25.1 C 0 km/h
683 09-06-2005 16:37:02 24.2 C 5.06 g/m*3 24.2 C 0 km/h
684 09-06-2005 16:49:01 21.9 C 5.02 g/m*3 21.9 C 0 km/h
685 09-06-2005 17:01:02 22 C 5.05 g/m*3 22 C 0 km/h
686 09-06-2005 17:13:02 22.7 C 5.05 g/m*3 22.7 C 0 km/h
687 09-06-2005 17:25:02 22.5 C 5.39 g/m*3 22.5 C 0 km/h
688 09-06-2005 17:37:02 22.1 C 5.08 g/m*3 22.1 C 0 km/h
689 09-06-2005 17:49:01 24.4 C 4.67 g/m*3 24.4 C 0 km/h
690 09-06-2005 18:01:02 24 C 4.57 g/m*3 24 C 0 km/h
691 09-06-2005 18:13:02 24.1 C 4.59 g/m*3 24.1 C 0 km/h
692 09-06-2005 18:25:02 24.9 C 4.81 g/m*3 24.9 C 0 km/h
693 09-06-2005 18:37:01 23.7 C 4.71 g/m*3 23.7 C 0 km/h
694 09-06-2005 18:49:02 23 C 4.52 g/m*3 23 C 0 km/h
695 09-06-2005 19:01:02 22.8 C 5.08 g/m*3 22.8 C 0 km/h
696 09-06-2005 19:13:02 22.5 C 5.39 g/m*3 22.5 C 0 km/h
697 09-06-2005 19:25:02 23.2 C 5.2 g/m*3 23.2 C 0 km/h
698 09-06-2005 19:37:02 22.7 C 5.05 g/m*3 22.7 C 0 km/h
699 09-06-2005 19:49:01 22.6 C 5.22 g/m*3 22.6 C 0 km/h
700 09-06-2005 20:01:02 21.8 C 5.18 g/m*3 21.8 C 0 km/h
Sensor: Nr:Datum:Temp:Abs-Feuchte:Windchill:Wind:
Aussen-T/F 701 09-06-2005 20:13:02 21.2 C 5.19 g/m*3 21.2 C 0 km/h
702 09-06-2005 20:25:02 21.6 C 5.5 g/m*3 21.6 C 0 km/h
703 09-06-2005 20:37:02 20.7 C 5.4 g/m*3 20.7 C 0 km/h
704 09-06-2005 20:49:02 20.7 C 5.58 g/m*3 20.7 C 0 km/h
705 09-06-2005 21:01:02 20.1 C 5.74 g/m*3 20.1 C 0 km/h
706 09-06-2005 21:13:02 19.5 C 6.04 g/m*3 19.5 C 0 km/h
707 09-06-2005 21:25:02 18.9 C 6.48 g/m*3 18.9 C 0 km/h
708 09-06-2005 21:38:53 18.4 C 6.45 g/m*3 18.4 C 0 km/h
709 09-06-2005 21:50:53 17.8 C 6.53 g/m*3 17.8 C 0 km/h
710 09-06-2005 22:02:53 17.1 C 6.4 g/m*3 17.1 C 0 km/h
711 09-06-2005 22:14:53 16.6 C 6.36 g/m*3 16.6 C 0 km/h
712 09-06-2005 22:26:53 16.3 C 6.24 g/m*3 16.3 C 0 km/h
713 09-06-2005 22:38:53 16 C 6.4 g/m*3 16 C 0 km/h
714 09-06-2005 22:50:53 15.8 C 6.6 g/m*3 15.8 C 0 km/h
715 09-06-2005 23:02:53 15.6 C 6.78 g/m*3 15.6 C 0 km/h
716 09-06-2005 23:14:53 15.4 C 6.7 g/m*3 15.4 C 0 km/h
717 09-06-2005 23:26:53 14.8 C 6.59 g/m*3 14.8 C 0 km/h
718 09-06-2005 23:38:53 14.9 C 6.88 g/m*3 14.9 C 0 km/h
719 09-06-2005 23:50:53 14.4 C 7.05 g/m*3 14.4 C 0 km/h
720 10-06-2005 00:02:53 14.3 C 7.13 g/m*3 14.3 C 0 km/h
721 10-06-2005 00:14:53 14.1 C 6.92 g/m*3 14.1 C 0 km/h
722 10-06-2005 00:26:53 13.9 C 7.07 g/m*3 13.9 C 0 km/h
723 10-06-2005 00:38:53 13.8 C 7.03 g/m*3 13.8 C 0 km/h
724 10-06-2005 00:50:53 13.7 C 7.1 g/m*3 13.7 C 0 km/h
725 10-06-2005 01:02:54 13.3 C 7.16 g/m*3 13.3 C 0 km/h
Sensor: Nr:Datum:Temp:Abs-Feuchte:Windchill:Wind:
Aussen-T/F 726 10-06-2005 01:14:54 13.4 C 7.21 g/m*3 13.4 C 0 km/h
727 10-06-2005 01:26:54 13.2 C 7.23 g/m*3 13.2 C 0 km/h
728 10-06-2005 01:38:54 12.8 C 7.17 g/m*3 12.8 C 0 km/h
729 10-06-2005 01:50:54 12.4 C 7.21 g/m*3 12.4 C 0 km/h
730 10-06-2005 02:02:54 12.2 C 7.23 g/m*3 12.2 C 0 km/h
731 10-06-2005 02:14:54 11.9 C 7.2 g/m*3 11.9 C 0 km/h
732 10-06-2005 02:26:54 11.7 C 7.22 g/m*3 11.7 C 0 km/h
733 10-06-2005 02:38:54 11.4 C 7.19 g/m*3 11.4 C 0 km/h
734 10-06-2005 02:50:54 11.1 C 7.15 g/m*3 11.1 C 0 km/h
735 10-06-2005 03:02:54 10.9 C 7.26 g/m*3 10.9 C 0 km/h
736 10-06-2005 03:14:54 10.6 C 7.22 g/m*3 10.6 C 0 km/h
737 10-06-2005 03:26:54 10.4 C 7.23 g/m*3 10.4 C 0 km/h
738 10-06-2005 03:38:54 10.2 C 7.14 g/m*3 10.2 C 0 km/h
739 10-06-2005 03:50:54 9.9 C 7.28 g/m*3 9.9 C 0 km/h
740 10-06-2005 04:02:54 9.6 C 7.24 g/m*3 9.6 C 0 km/h
741 10-06-2005 04:14:54 9.5 C 7.19 g/m*3 9.5 C 0 km/h
742 10-06-2005 04:26:54 9.3 C 7.1 g/m*3 9.3 C 0 km/h
743 10-06-2005 04:38:54 9.2 C 7.14 g/m*3 9.2 C 0 km/h
744 10-06-2005 04:50:54 9 C 7.14 g/m*3 9 C 0 km/h
745 10-06-2005 05:02:55 8.9 C 7.27 g/m*3 8.9 C 0 km/h
746 10-06-2005 05:14:55 8.8 C 7.22 g/m*3 8.8 C 0 km/h
747 10-06-2005 05:26:55 8.6 C 7.13 g/m*3 8.6 C 0 km/h
748 10-06-2005 05:38:55 8.6 C 7.13 g/m*3 8.6 C 0 km/h
749 10-06-2005 05:50:55 8.6 C 7.13 g/m*3 8.6 C 0 km/h
750 10-06-2005 06:02:55 8.5 C 7.09 g/m*3 8.5 C 0 km/h
Sensor: Nr:Datum:Temp:Abs-Feuchte:Windchill:Wind:
Aussen-T/F 751 10-06-2005 06:14:55 8.4 C 7.13 g/m*3 8.4 C 0 km/h
752 10-06-2005 06:26:55 8.4 C 7.13 g/m*3 8.4 C 0 km/h
753 10-06-2005 06:38:55 8.5 C 7.17 g/m*3 8.5 C 0 km/h
754 10-06-2005 06:50:55 8.6 C 7.22 g/m*3 8.6 C 0 km/h
755 10-06-2005 07:02:55 8.7 C 7.26 g/m*3 8.7 C 0 km/h
756 10-06-2005 07:14:55 9 C 7.23 g/m*3 9 C 0 km/h
757 10-06-2005 07:26:55 9.2 C 7.32 g/m*3 9.2 C 0 km/h
758 10-06-2005 07:38:55 9.3 C 7.28 g/m*3 9.3 C 0 km/h
759 10-06-2005 07:50:02 9.5 C 7.28 g/m*3 9.5 C 0 km/h
760 10-06-2005 08:02:02 9.7 C 7.28 g/m*3 9.7 C 0 km/h
761 10-06-2005 08:14:03 10.1 C 7.28 g/m*3 10.1 C 0 km/h
762 10-06-2005 08:26:01 10.5 C 7.37 g/m*3 10.5 C 0 km/h
763 10-06-2005 08:38:02 11 C 7.31 g/m*3 11 C 0 km/h
764 10-06-2005 08:50:02 11.5 C 7.33 g/m*3 11.5 C 0 km/h
765 10-06-2005 09:02:03 12.2 C 7.23 g/m*3 12.2 C 0 km/h
766 10-06-2005 09:14:03 12.8 C 7.17 g/m*3 12.8 C 0 km/h
767 10-06-2005 09:26:02 14.2 C 7.2 g/m*3 14.2 C 0 km/h
768 10-06-2005 09:38:02 14.9 C 7.26 g/m*3 14.9 C 0 km/h
769 10-06-2005 09:50:02 15 C 7.18 g/m*3 15 C 0 km/h
770 10-06-2005 10:02:02 15.6 C 7.18 g/m*3 15.6 C 0 km/h
771 10-06-2005 10:14:02 15.8 C 6.87 g/m*3 15.8 C 0 km/h
772 10-06-2005 10:26:01 16.8 C 7.15 g/m*3 16.8 C 0 km/h
773 10-06-2005 10:38:02 17.9 C 7.02 g/m*3 17.9 C 0 km/h
774 10-06-2005 10:50:02 18 C 6.3 g/m*3 18 C 0 km/h
775 10-06-2005 11:02:02 18.6 C 6.21 g/m*3 18.6 C 0 km/h
Sensor: Nr:Datum:Temp:Abs-Feuchte:Windchill:Wind:
Aussen-T/F 776 10-06-2005 11:14:02 19.3 C 6.3 g/m*3 19.3 C 0 km/h
777 10-06-2005 11:26:02 18.3 C 5.94 g/m*3 18.3 C 0 km/h
778 10-06-2005 11:38:02 19.4 C 5.84 g/m*3 19.4 C 0 km/h
779 10-06-2005 11:50:01 18.9 C 5.51 g/m*3 18.9 C 0 km/h
780 10-06-2005 12:02:01 20.4 C 4.95 g/m*3 20.4 C 0 km/h
781 10-06-2005 12:14:01 20.9 C 5.65 g/m*3 20.9 C 0 km/h
782 10-06-2005 12:26:02 20.3 C 5.28 g/m*3 20.3 C 0 km/h
783 10-06-2005 12:38:01 19.8 C 5.3 g/m*3 19.8 C 0 km/h
784 10-06-2005 12:50:01 19.3 C 5.47 g/m*3 19.3 C 0 km/h
785 10-06-2005 13:02:01 19.8 C 5.64 g/m*3 19.8 C 0 km/h
786 10-06-2005 13:14:01 19.7 C 5.77 g/m*3 19.7 C 0 km/h
787 10-06-2005 13:26:01 20 C 5.88 g/m*3 20 C 0 km/h
788 10-06-2005 13:38:02 22.3 C 6.12 g/m*3 22.3 C 0 km/h
789 10-06-2005 13:50:01 24.6 C 5.63 g/m*3 24.6 C 0 km/h
790 10-06-2005 14:02:01 24.1 C 5.47 g/m*3 24.1 C 0 km/h
791 10-06-2005 14:14:01 22 C 5.82 g/m*3 22 C 0 km/h
792 10-06-2005 14:26:01 21.7 C 5.72 g/m*3 21.7 C 0 km/h
793 10-06-2005 14:38:01 22.6 C 5.83 g/m*3 22.6 C 0 km/h
794 10-06-2005 14:50:01 21.7 C 5.91 g/m*3 21.7 C 0 km/h
795 10-06-2005 15:02:01 21.5 C 5.66 g/m*3 21.5 C 0 km/h
796 10-06-2005 15:14:01 21.4 C 4.87 g/m*3 21.4 C 0 km/h
797 10-06-2005 15:26:02 22.2 C 4.71 g/m*3 22.2 C 0 km/h
798 10-06-2005 15:38:01 21.4 C 5.25 g/m*3 21.4 C 0 km/h
799 10-06-2005 15:50:01 21.1 C 5.34 g/m*3 21.1 C 0 km/h
800 10-06-2005 16:02:01 21.9 C 5.4 g/m*3 21.9 C 0 km/h
Sensor: Nr:Datum:Temp:Abs-Feuchte:Windchill:Wind:
Aussen-T/F 801 10-06-2005 16:14:01 22.5 C 5.39 g/m*3 22.5 C 0 km/h
802 10-06-2005 16:26:01 21.1 C 5.16 g/m*3 21.1 C 0 km/h
803 10-06-2005 16:38:02 21.6 C 5.31 g/m*3 21.6 C 0 km/h
804 10-06-2005 16:50:02 22.1 C 5.47 g/m*3 22.1 C 0 km/h
805 10-06-2005 17:02:03 21.8 C 5.37 g/m*3 21.8 C 0 km/h
806 10-06-2005 17:14:03 22 C 5.24 g/m*3 22 C 0 km/h
807 10-06-2005 17:26:02 23.7 C 5.35 g/m*3 23.7 C 0 km/h
808 10-06-2005 17:38:02 23.5 C 5.08 g/m*3 23.5 C 0 km/h
809 10-06-2005 17:50:03 22.5 C 5.19 g/m*3 22.5 C 0 km/h
810 10-06-2005 18:02:02 22 C 5.24 g/m*3 22 C 0 km/h
811 10-06-2005 18:14:02 21.2 C 5.93 g/m*3 21.2 C 0 km/h
812 10-06-2005 18:26:03 20.9 C 6.37 g/m*3 20.9 C 0 km/h
813 10-06-2005 18:38:02 21.2 C 6.49 g/m*3 21.2 C 0 km/h
814 10-06-2005 18:50:02 21 C 6.23 g/m*3 21 C 0 km/h
815 10-06-2005 19:02:01 21.2 C 6.12 g/m*3 21.2 C 0 km/h
816 10-06-2005 19:14:01 21 C 6.05 g/m*3 21 C 0 km/h
817 10-06-2005 19:26:02 20.5 C 6.41 g/m*3 20.5 C 0 km/h
818 10-06-2005 19:38:02 20.6 C 6.44 g/m*3 20.6 C 0 km/h
819 10-06-2005 19:50:02 21.6 C 6.64 g/m*3 21.6 C 0 km/h
820 10-06-2005 20:02:02 22.1 C 6.25 g/m*3 22.1 C 0 km/h
821 10-06-2005 20:14:02 21.6 C 6.26 g/m*3 21.6 C 0 km/h
822 10-06-2005 20:26:02 20.7 C 6.48 g/m*3 20.7 C 0 km/h
823 10-06-2005 20:38:02 20 C 6.74 g/m*3 20 C 0 km/h
824 10-06-2005 20:50:02 19.3 C 6.97 g/m*3 19.3 C 0 km/h
825 10-06-2005 21:02:02 18.5 C 6.96 g/m*3 18.5 C 0 km/h
Sensor: Nr:Datum:Temp:Abs-Feuchte:Windchill:Wind:
Aussen-T/F 826 10-06-2005 21:14:02 17.9 C 7.02 g/m*3 17.9 C 0 km/h
827 10-06-2005 21:26:03 17.7 C 6.79 g/m*3 17.7 C 0 km/h
828 10-06-2005 21:38:02 17 C 6.8 g/m*3 17 C 0 km/h
829 10-06-2005 21:50:01 16.6 C 7.06 g/m*3 16.6 C 0 km/h
830 10-06-2005 22:02:02 16.6 C 7.06 g/m*3 16.6 C 0 km/h
831 10-06-2005 22:14:02 16.5 C 7.16 g/m*3 16.5 C 0 km/h
832 10-06-2005 22:26:02 16.2 C 7.03 g/m*3 16.2 C 0 km/h
833 10-06-2005 22:38:02 16.2 C 7.31 g/m*3 16.2 C 0 km/h
834 10-06-2005 22:50:02 16 C 7.22 g/m*3 16 C 0 km/h
835 10-06-2005 23:02:02 16 C 7.22 g/m*3 16 C 0 km/h
836 10-06-2005 23:14:02 16.2 C 7.17 g/m*3 16.2 C 0 km/h
837 10-06-2005 23:26:02 16.5 C 7.16 g/m*3 16.5 C 0 km/h
838 10-06-2005 23:38:02 16.4 C 7.4 g/m*3 16.4 C 0 km/h
839 10-06-2005 23:50:02 16.4 C 7.82 g/m*3 16.4 C 0 km/h
840 11-06-2005 00:02:03 16.4 C 7.96 g/m*3 16.4 C 0 km/h
841 11-06-2005 00:14:03 15.9 C 8.67 g/m*3 15.9 C 0 km/h
842 11-06-2005 00:26:03 14.9 C 9.3 g/m*3 14.9 C 0 km/h
843 11-06-2005 00:38:02 14.8 C 9.63 g/m*3 14.8 C 0 km/h
844 11-06-2005 00:50:03 14.9 C 9.94 g/m*3 14.9 C 0 km/h
845 11-06-2005 01:02:02 15.2 C 9.99 g/m*3 15.2 C 0 km/h
846 11-06-2005 01:14:02 14.8 C 9.88 g/m*3 14.8 C 0 km/h
847 11-06-2005 01:26:02 14.7 C 9.82 g/m*3 14.7 C 0 km/h
848 11-06-2005 01:38:02 14.8 C 9.88 g/m*3 14.8 C 0 km/h
849 11-06-2005 01:50:02 14.8 C 9.75 g/m*3 14.8 C 0 km/h
850 11-06-2005 02:02:02 14.8 C 9.63 g/m*3 14.8 C 0 km/h
Sensor: Nr:Datum:Temp:Abs-Feuchte:Windchill:Wind:
Aussen-T/F 851 11-06-2005 02:14:02 14.7 C 9.44 g/m*3 14.7 C 0 km/h
852 11-06-2005 02:26:03 14.3 C 9.21 g/m*3 14.3 C 0 km/h
853 11-06-2005 02:38:03 14.2 C 9.16 g/m*3 14.2 C 0 km/h
854 11-06-2005 02:51:04 13.8 C 9.06 g/m*3 13.8 C 0 km/h
855 11-06-2005 03:03:04 13.8 C 8.82 g/m*3 13.8 C 0 km/h
856 11-06-2005 03:15:03 13.7 C 8.41 g/m*3 13.7 C 0 km/h
857 11-06-2005 03:27:03 13.5 C 8.07 g/m*3 13.5 C 0 km/h
858 11-06-2005 03:39:02 13.6 C 8 g/m*3 13.6 C 0 km/h
859 11-06-2005 03:51:02 13.5 C 7.95 g/m*3 13.5 C 0 km/h
860 11-06-2005 04:03:03 13.5 C 7.84 g/m*3 13.5 C 0 km/h
861 11-06-2005 04:15:02 13.3 C 7.51 g/m*3 13.3 C 0 km/h
862 11-06-2005 04:27:02 13.2 C 7.46 g/m*3 13.2 C 0 km/h
863 11-06-2005 04:39:03 12.8 C 7.73 g/m*3 12.8 C 0 km/h
864 11-06-2005 04:51:02 12.2 C 7.88 g/m*3 12.2 C 0 km/h
865 11-06-2005 05:03:01 11.6 C 8 g/m*3 11.6 C 0 km/h
866 11-06-2005 05:15:03 11.7 C 7.84 g/m*3 11.7 C 0 km/h
867 11-06-2005 05:27:03 11.7 C 7.95 g/m*3 11.7 C 0 km/h
868 11-06-2005 05:39:03 11.5 C 7.64 g/m*3 11.5 C 0 km/h
869 11-06-2005 05:51:02 11.5 C 7.23 g/m*3 11.5 C 0 km/h
870 11-06-2005 06:03:02 11.8 C 7.26 g/m*3 11.8 C 0 km/h
871 11-06-2005 06:15:02 11.8 C 7.16 g/m*3 11.8 C 0 km/h
872 11-06-2005 06:27:02 11.8 C 6.84 g/m*3 11.8 C 0 km/h
873 11-06-2005 06:39:02 11.6 C 6.55 g/m*3 11.6 C 0 km/h
874 11-06-2005 06:51:02 11.6 C 6.55 g/m*3 11.6 C 0 km/h
875 11-06-2005 07:03:03 11.4 C 6.36 g/m*3 11.4 C 0 km/h
Sensor: Nr:Datum:Temp:Abs-Feuchte:Windchill:Wind:
Aussen-T/F 876 11-06-2005 07:15:02 11.4 C 6.36 g/m*3 11.4 C 0 km/h
877 11-06-2005 07:27:02 11.7 C 6.38 g/m*3 11.7 C 0 km/h
878 11-06-2005 07:39:02 11.9 C 6.35 g/m*3 11.9 C 0 km/h
879 11-06-2005 07:51:03 12 C 6.29 g/m*3 12 C 0 km/h
880 11-06-2005 08:03:02 11.9 C 6.35 g/m*3 11.9 C 0 km/h
881 11-06-2005 08:15:02 12 C 6.29 g/m*3 12 C 0 km/h
882 11-06-2005 08:27:02 11.8 C 6.31 g/m*3 11.8 C 0 km/h
883 11-06-2005 08:39:02 11.9 C 6.35 g/m*3 11.9 C 0 km/h
884 11-06-2005 08:51:02 12.3 C 6.19 g/m*3 12.3 C 0 km/h
885 11-06-2005 09:03:02 12.3 C 5.65 g/m*3 12.3 C 0 km/h
886 11-06-2005 09:15:02 12 C 5.44 g/m*3 12 C 0 km/h
887 11-06-2005 09:27:02 12.7 C 5.45 g/m*3 12.7 C 0 km/h
888 11-06-2005 09:39:02 13.1 C 5.36 g/m*3 13.1 C 0 km/h
889 11-06-2005 09:51:02 13.1 C 5.25 g/m*3 13.1 C 0 km/h
890 11-06-2005 10:03:02 12.8 C 5.49 g/m*3 12.8 C 0 km/h
891 11-06-2005 10:15:01 13.7 C 5.57 g/m*3 13.7 C 0 km/h
892 11-06-2005 10:27:01 14.2 C 5.13 g/m*3 14.2 C 0 km/h
893 11-06-2005 10:39:02 14.1 C 5.1 g/m*3 14.1 C 0 km/h
894 11-06-2005 10:51:01 14 C 4.82 g/m*3 14 C 0 km/h
895 11-06-2005 11:03:01 15.2 C 4.8 g/m*3 15.2 C 0 km/h
896 11-06-2005 11:15:01 14.5 C 4.48 g/m*3 14.5 C 0 km/h
897 11-06-2005 11:27:01 14.7 C 4.66 g/m*3 14.7 C 0 km/h
898 11-06-2005 11:39:02 16.1 C 4.8 g/m*3 16.1 C 0 km/h
899 11-06-2005 11:51:02 16.1 C 4.25 g/m*3 16.1 C 0 km/h
900 11-06-2005 12:03:02 15.6 C 4.12 g/m*3 15.6 C 0 km/h
Sensor: Nr:Datum:Temp:Abs-Feuchte:Windchill:Wind:
Aussen-T/F 901 11-06-2005 12:15:01 16.9 C 3.88 g/m*3 16.9 C 0 km/h
902 11-06-2005 12:27:01 16.7 C 4.12 g/m*3 16.7 C 0 km/h
903 11-06-2005 12:39:01 15.8 C 3.77 g/m*3 15.8 C 0 km/h
904 11-06-2005 12:51:02 17.1 C 4.08 g/m*3 17.1 C 0 km/h
905 11-06-2005 13:03:02 16.8 C 4.15 g/m*3 16.8 C 0 km/h
906 11-06-2005 13:15:03 15.7 C 4.01 g/m*3 15.7 C 0 km/h
907 11-06-2005 13:27:03 15 C 4.23 g/m*3 15 C 0 km/h
908 11-06-2005 13:39:02 17.2 C 4.54 g/m*3 17.2 C 0 km/h
909 11-06-2005 13:51:02 16.4 C 4.47 g/m*3 16.4 C 0 km/h
910 11-06-2005 14:03:02 16.7 C 4.41 g/m*3 16.7 C 0 km/h
911 11-06-2005 14:15:01 16.5 C 4.21 g/m*3 16.5 C 0 km/h
912 11-06-2005 14:27:01 17 C 4.34 g/m*3 17 C 0 km/h
913 11-06-2005 14:39:01 18.4 C 4.4 g/m*3 18.4 C 0 km/h
914 11-06-2005 14:51:02 17.5 C 4.47 g/m*3 17.5 C 0 km/h
915 11-06-2005 15:03:02 16.7 C 4.55 g/m*3 16.7 C 0 km/h
916 11-06-2005 15:15:01 16.9 C 4.6 g/m*3 16.9 C 0 km/h
917 11-06-2005 15:27:01 16.7 C 4.41 g/m*3 16.7 C 0 km/h
918 11-06-2005 15:39:02 16.6 C 4.8 g/m*3 16.6 C 0 km/h
919 11-06-2005 15:51:02 17.6 C 4.8 g/m*3 17.6 C 0 km/h
920 11-06-2005 16:03:01 17.1 C 4.37 g/m*3 17.1 C 0 km/h
921 11-06-2005 16:15:02 16.2 C 4.41 g/m*3 16.2 C 0 km/h
922 11-06-2005 16:27:02 16.3 C 4.44 g/m*3 16.3 C 0 km/h
923 11-06-2005 16:39:02 16.8 C 4.72 g/m*3 16.8 C 0 km/h
924 11-06-2005 16:51:02 17.1 C 4.51 g/m*3 17.1 C 0 km/h
925 11-06-2005 17:03:02 17.2 C 4.1 g/m*3 17.2 C 0 km/h
Sensor: Nr:Datum:Temp:Abs-Feuchte:Windchill:Wind:
Aussen-T/F 926 11-06-2005 17:15:02 17 C 4.34 g/m*3 17 C 0 km/h
927 11-06-2005 17:27:02 17.3 C 4.42 g/m*3 17.3 C 0 km/h
928 11-06-2005 17:39:02 17.4 C 4.3 g/m*3 17.4 C 0 km/h
929 11-06-2005 17:51:02 18.2 C 4.35 g/m*3 18.2 C 0 km/h
930 11-06-2005 18:03:03 17.8 C 4.25 g/m*3 17.8 C 0 km/h
931 11-06-2005 18:15:03 17.5 C 4.47 g/m*3 17.5 C 0 km/h
932 11-06-2005 18:27:03 17.4 C 4.3 g/m*3 17.4 C 0 km/h
933 11-06-2005 18:39:03 16.7 C 4.41 g/m*3 16.7 C 0 km/h
934 11-06-2005 18:51:02 16.4 C 4.61 g/m*3 16.4 C 0 km/h
935 11-06-2005 19:03:01 15.9 C 4.6 g/m*3 15.9 C 0 km/h
936 11-06-2005 19:15:02 17 C 4.63 g/m*3 17 C 0 km/h
937 11-06-2005 19:27:02 16.6 C 4.52 g/m*3 16.6 C 0 km/h
938 11-06-2005 19:39:02 15.6 C 4.79 g/m*3 15.6 C 0 km/h
939 11-06-2005 19:51:02 15.5 C 4.89 g/m*3 15.5 C 0 km/h
940 11-06-2005 20:03:02 15.2 C 4.93 g/m*3 15.2 C 0 km/h
941 11-06-2005 20:15:02 15.2 C 4.93 g/m*3 15.2 C 0 km/h
942 11-06-2005 20:27:02 15.3 C 5.09 g/m*3 15.3 C 0 km/h
943 11-06-2005 20:39:02 15 C 5 g/m*3 15 C 0 km/h
944 11-06-2005 20:51:02 14.9 C 4.97 g/m*3 14.9 C 0 km/h
945 11-06-2005 21:03:02 14.7 C 5.04 g/m*3 14.7 C 0 km/h
946 11-06-2005 21:15:03 14.4 C 5.19 g/m*3 14.4 C 0 km/h
947 11-06-2005 21:27:03 14.4 C 5.32 g/m*3 14.4 C 0 km/h
948 11-06-2005 21:39:02 14.2 C 5.37 g/m*3 14.2 C 0 km/h
949 11-06-2005 21:51:02 13.9 C 5.39 g/m*3 13.9 C 0 km/h
950 11-06-2005 22:03:01 13.8 C 5.48 g/m*3 13.8 C 0 km/h
Sensor: Nr:Datum:Temp:Abs-Feuchte:Windchill:Wind:
Aussen-T/F 951 11-06-2005 22:15:01 13.8 C 5.6 g/m*3 13.8 C 0 km/h
952 11-06-2005 22:27:01 13.8 C 5.72 g/m*3 13.8 C 0 km/h
953 11-06-2005 22:39:02 13.4 C 6.04 g/m*3 13.4 C 0 km/h
954 11-06-2005 22:51:02 13.2 C 5.97 g/m*3 13.2 C 0 km/h
955 11-06-2005 23:03:02 13.1 C 5.93 g/m*3 13.1 C 0 km/h
956 11-06-2005 23:15:02 13 C 6.01 g/m*3 13 C 0 km/h
957 11-06-2005 23:27:02 12.9 C 6.09 g/m*3 12.9 C 0 km/h
958 11-06-2005 23:39:02 12.6 C 6.2 g/m*3 12.6 C 0 km/h
959 11-06-2005 23:51:02 12.4 C 6.12 g/m*3 12.4 C 0 km/h
960 12-06-2005 00:03:03 12.5 C 6.27 g/m*3 12.5 C 0 km/h
961 12-06-2005 00:15:03 12.4 C 6.12 g/m*3 12.4 C 0 km/h
962 12-06-2005 00:27:03 12 C 6.29 g/m*3 12 C 0 km/h
963 12-06-2005 00:39:02 11.7 C 6.28 g/m*3 11.7 C 0 km/h
964 12-06-2005 00:51:01 11.3 C 6.22 g/m*3 11.3 C 0 km/h
965 12-06-2005 01:03:02 11 C 6.21 g/m*3 11 C 0 km/h
966 12-06-2005 01:15:02 10.9 C 6.37 g/m*3 10.9 C 0 km/h
967 12-06-2005 01:27:02 10.5 C 6.3 g/m*3 10.5 C 0 km/h
968 12-06-2005 01:39:02 10 C 6.11 g/m*3 10 C 0 km/h
969 12-06-2005 01:51:02 9.7 C 6.27 g/m*3 9.7 C 0 km/h
970 12-06-2005 02:03:02 9.5 C 6.37 g/m*3 9.5 C 0 km/h
971 12-06-2005 02:15:02 9.4 C 6.33 g/m*3 9.4 C 0 km/h
972 12-06-2005 02:27:02 9.5 C 6.46 g/m*3 9.5 C 0 km/h
973 12-06-2005 02:39:02 9.6 C 6.5 g/m*3 9.6 C 0 km/h
974 12-06-2005 02:52:03 9.6 C 6.5 g/m*3 9.6 C 0 km/h
975 12-06-2005 03:04:03 9.5 C 6.55 g/m*3 9.5 C 0 km/h
Sensor: Nr:Datum:Temp:Abs-Feuchte:Windchill:Wind:
Aussen-T/F 976 12-06-2005 03:16:04 9.2 C 6.61 g/m*3 9.2 C 0 km/h
977 12-06-2005 03:28:04 9.2 C 6.61 g/m*3 9.2 C 0 km/h
978 12-06-2005 03:40:02 9.1 C 6.57 g/m*3 9.1 C 0 km/h
979 12-06-2005 03:52:02 9.1 C 6.65 g/m*3 9.1 C 0 km/h
980 12-06-2005 04:04:01 9.1 C 6.65 g/m*3 9.1 C 0 km/h
981 12-06-2005 04:16:01 9.1 C 6.65 g/m*3 9.1 C 0 km/h
982 12-06-2005 04:28:01 9.2 C 6.7 g/m*3 9.2 C 0 km/h
983 12-06-2005 04:40:01 9.1 C 6.65 g/m*3 9.1 C 0 km/h
984 12-06-2005 04:52:02 9 C 6.7 g/m*3 9 C 0 km/h
985 12-06-2005 05:04:01 8.9 C 6.75 g/m*3 8.9 C 0 km/h
986 12-06-2005 05:16:02 8.7 C 6.66 g/m*3 8.7 C 0 km/h
987 12-06-2005 05:28:02 8.3 C 6.66 g/m*3 8.3 C 0 km/h
988 12-06-2005 05:40:02 8.2 C 6.7 g/m*3 8.2 C 0 km/h
989 12-06-2005 05:52:02 8 C 6.7 g/m*3 8 C 0 km/h
990 12-06-2005 06:04:02 8 C 6.7 g/m*3 8 C 0 km/h
991 12-06-2005 06:16:01 8.1 C 6.82 g/m*3 8.1 C 0 km/h
992 12-06-2005 06:28:01 7.8 C 6.77 g/m*3 7.8 C 0 km/h
993 12-06-2005 06:40:02 7.9 C 6.82 g/m*3 7.9 C 0 km/h
994 12-06-2005 06:52:03 8.3 C 6.74 g/m*3 8.3 C 0 km/h
995 12-06-2005 07:04:02 8.3 C 6.66 g/m*3 8.3 C 0 km/h
996 12-06-2005 07:16:02 8.3 C 6.66 g/m*3 8.3 C 0 km/h
997 12-06-2005 07:28:02 8.6 C 6.7 g/m*3 8.6 C 0 km/h
998 12-06-2005 07:40:03 8.9 C 6.75 g/m*3 8.9 C 0 km/h
999 12-06-2005 07:52:02 9.1 C 6.57 g/m*3 9.1 C 0 km/h
1000 12-06-2005 08:04:02 9.3 C 6.56 g/m*3 9.3 C 0 km/h
Sensor: Nr:Datum:Temp:Abs-Feuchte:Windchill:Wind:
Aussen-T/F 1001 12-06-2005 08:16:02 9.5 C 6.46 g/m*3 9.5 C 0 km/h
1002 12-06-2005 08:28:02 9.7 C 6.55 g/m*3 9.7 C 0 km/h
1003 12-06-2005 08:40:02 9.9 C 6.54 g/m*3 9.9 C 0 km/h
1004 12-06-2005 08:52:02 10.2 C 6.47 g/m*3 10.2 C 0 km/h
1005 12-06-2005 09:04:02 11 C 6.51 g/m*3 11 C 0 km/h
1006 12-06-2005 09:16:02 12.3 C 6.3 g/m*3 12.3 C 0 km/h
1007 12-06-2005 09:28:02 12.5 C 6.16 g/m*3 12.5 C 0 km/h
1008 12-06-2005 09:40:02 13.3 C 6.12 g/m*3 13.3 C 0 km/h
1009 12-06-2005 09:52:01 13 C 5.9 g/m*3 13 C 0 km/h
1010 12-06-2005 10:04:01 13 C 5.9 g/m*3 13 C 0 km/h
1011 12-06-2005 10:16:02 13 C 6.01 g/m*3 13 C 0 km/h
1012 12-06-2005 10:28:02 13.6 C 6.12 g/m*3 13.6 C 0 km/h
1013 12-06-2005 10:40:02 14.7 C 5.79 g/m*3 14.7 C 0 km/h
1014 12-06-2005 10:52:02 13.5 C 5.61 g/m*3 13.5 C 0 km/h
1015 12-06-2005 11:04:04 13.1 C 5.71 g/m*3 13.1 C 0 km/h
1016 12-06-2005 11:16:03 13.8 C 5.72 g/m*3 13.8 C 0 km/h
1017 12-06-2005 11:28:03 14.6 C 5.88 g/m*3 14.6 C 0 km/h
1018 12-06-2005 11:40:02 15.2 C 5.58 g/m*3 15.2 C 0 km/h
1019 12-06-2005 11:52:03 15.5 C 5.42 g/m*3 15.5 C 0 km/h
1020 12-06-2005 12:04:02 15.7 C 5.49 g/m*3 15.7 C 0 km/h
1021 12-06-2005 12:16:02 16.5 C 5.06 g/m*3 16.5 C 0 km/h
1022 12-06-2005 12:28:03 16 C 5.04 g/m*3 16 C 0 km/h
1023 12-06-2005 12:40:02 16 C 4.9 g/m*3 16 C 0 km/h
1024 12-06-2005 12:52:02 15.9 C 4.88 g/m*3 15.9 C 0 km/h
1025 12-06-2005 13:04:02 16.6 C 5.09 g/m*3 16.6 C 0 km/h
Sensor: Nr:Datum:Temp:Abs-Feuchte:Windchill:Wind:
Aussen-T/F 1026 12-06-2005 13:16:02 16.8 C 5 g/m*3 16.8 C 0 km/h
1027 12-06-2005 13:28:02 16.1 C 4.52 g/m*3 16.1 C 0 km/h
1028 12-06-2005 13:40:02 16.4 C 4.89 g/m*3 16.4 C 0 km/h
1029 12-06-2005 13:52:02 18.3 C 4.69 g/m*3 18.3 C 0 km/h
1030 12-06-2005 14:04:02 18.1 C 4.94 g/m*3 18.1 C 0 km/h
1031 12-06-2005 14:16:02 17.9 C 5.34 g/m*3 17.9 C 0 km/h
1032 12-06-2005 14:28:02 19.3 C 5.47 g/m*3 19.3 C 0 km/h
1033 12-06-2005 14:40:03 19.3 C 4.81 g/m*3 19.3 C 0 km/h
1034 12-06-2005 14:52:02 18.5 C 4.59 g/m*3 18.5 C 0 km/h
1035 12-06-2005 15:04:02 19.1 C 4.92 g/m*3 19.1 C 0 km/h
1036 12-06-2005 15:16:03 18.7 C 4.64 g/m*3 18.7 C 0 km/h
1037 12-06-2005 15:28:03 17.5 C 4.62 g/m*3 17.5 C 0 km/h
1038 12-06-2005 15:40:02 17.7 C 4.98 g/m*3 17.7 C 0 km/h
1039 12-06-2005 15:52:02 18.3 C 4.85 g/m*3 18.3 C 0 km/h
1040 12-06-2005 16:04:03 19 C 5.05 g/m*3 19 C 0 km/h
1041 12-06-2005 16:16:03 19.4 C 4.67 g/m*3 19.4 C 0 km/h
1042 12-06-2005 16:28:03 20 C 5.01 g/m*3 20 C 0 km/h
1043 12-06-2005 16:40:03 20 C 4.49 g/m*3 20 C 0 km/h
1044 12-06-2005 16:52:02 19.4 C 5.01 g/m*3 19.4 C 0 km/h
1045 12-06-2005 17:04:02 19.3 C 4.64 g/m*3 19.3 C 0 km/h
1046 12-06-2005 17:16:03 19.6 C 4.9 g/m*3 19.6 C 0 km/h
1047 12-06-2005 17:28:03 18.9 C 4.86 g/m*3 18.9 C 0 km/h
1048 12-06-2005 17:40:03 18.9 C 4.86 g/m*3 18.9 C 0 km/h
1049 12-06-2005 17:52:03 19.1 C 4.75 g/m*3 19.1 C 0 km/h
1050 12-06-2005 18:04:03 19.4 C 4.84 g/m*3 19.4 C 0 km/h
Sensor: Nr:Datum:Temp:Abs-Feuchte:Windchill:Wind:
Aussen-T/F 1051 12-06-2005 18:16:03 19.3 C 4.98 g/m*3 19.3 C 0 km/h
1052 12-06-2005 18:28:03 19.3 C 4.98 g/m*3 19.3 C 0 km/h
1053 12-06-2005 18:40:02 19.6 C 5.23 g/m*3 19.6 C 0 km/h
1054 12-06-2005 18:52:02 19.3 C 5.14 g/m*3 19.3 C 0 km/h
1055 12-06-2005 19:04:02 19.3 C 5.31 g/m*3 19.3 C 0 km/h
1056 12-06-2005 19:16:02 19.4 C 5.84 g/m*3 19.4 C 0 km/h
1057 12-06-2005 19:28:03 19.4 C 6.01 g/m*3 19.4 C 0 km/h
1058 12-06-2005 19:40:01 19.2 C 6.6 g/m*3 19.2 C 0 km/h
1059 12-06-2005 19:52:03 18.6 C 6.37 g/m*3 18.6 C 0 km/h
1060 12-06-2005 20:04:04 18.4 C 6.13 g/m*3 18.4 C 0 km/h
1061 12-06-2005 20:16:02 18.1 C 6.18 g/m*3 18.1 C 0 km/h
1062 12-06-2005 20:28:02 18.3 C 6.57 g/m*3 18.3 C 0 km/h
1063 12-06-2005 20:40:02 18.5 C 6.49 g/m*3 18.5 C 0 km/h
1064 12-06-2005 20:52:02 18.4 C 6.45 g/m*3 18.4 C 0 km/h
1065 12-06-2005 21:04:02 18 C 6.3 g/m*3 18 C 0 km/h
1066 12-06-2005 21:16:02 17.3 C 6.33 g/m*3 17.3 C 0 km/h
1067 12-06-2005 21:28:02 16.4 C 6 g/m*3 16.4 C 0 km/h
1068 12-06-2005 21:40:02 16.2 C 6.07 g/m*3 16.2 C 0 km/h
1069 12-06-2005 21:52:02 15.8 C 6.19 g/m*3 15.8 C 0 km/h
1070 12-06-2005 22:04:02 15.7 C 6.29 g/m*3 15.7 C 0 km/h
1071 12-06-2005 22:16:02 15.2 C 5.97 g/m*3 15.2 C 0 km/h
1072 12-06-2005 22:28:02 15.2 C 5.97 g/m*3 15.2 C 0 km/h
1073 12-06-2005 22:40:02 15 C 6.03 g/m*3 15 C 0 km/h
1074 12-06-2005 22:52:02 14.8 C 6.08 g/m*3 14.8 C 0 km/h
1075 12-06-2005 23:04:02 14.7 C 6.3 g/m*3 14.7 C 0 km/h
Sensor: Nr:Datum:Temp:Abs-Feuchte:Windchill:Wind:
Aussen-T/F 1076 12-06-2005 23:16:01 14.7 C 6.3 g/m*3 14.7 C 0 km/h
1077 12-06-2005 23:28:01 14.6 C 6.26 g/m*3 14.6 C 0 km/h
1078 12-06-2005 23:40:02 14.4 C 6.3 g/m*3 14.4 C 0 km/h
1079 12-06-2005 23:52:02 14.2 C 6.35 g/m*3 14.2 C 0 km/h
1080 13-06-2005 00:04:02 13.8 C 6.2 g/m*3 13.8 C 0 km/h
1081 13-06-2005 00:16:03 13.3 C 6.24 g/m*3 13.3 C 0 km/h
1082 13-06-2005 00:28:03 13.1 C 6.28 g/m*3 13.1 C 0 km/h
1083 13-06-2005 00:40:02 12.8 C 6.38 g/m*3 12.8 C 0 km/h
1084 13-06-2005 00:52:02 12.7 C 6.35 g/m*3 12.7 C 0 km/h
1085 13-06-2005 01:04:02 12.4 C 6.34 g/m*3 12.4 C 0 km/h
1086 13-06-2005 01:16:02 12.2 C 6.26 g/m*3 12.2 C 0 km/h
1087 13-06-2005 01:28:02 12.2 C 6.26 g/m*3 12.2 C 0 km/h
1088 13-06-2005 01:40:02 12.2 C 6.26 g/m*3 12.2 C 0 km/h
1089 13-06-2005 01:52:01 12 C 6.29 g/m*3 12 C 0 km/h
1090 13-06-2005 02:04:01 11.8 C 6.42 g/m*3 11.8 C 0 km/h
1091 13-06-2005 02:16:02 11.6 C 6.44 g/m*3 11.6 C 0 km/h
1092 13-06-2005 02:28:02 11.5 C 6.4 g/m*3 11.5 C 0 km/h
1093 13-06-2005 02:40:02 11.4 C 6.47 g/m*3 11.4 C 0 km/h
1094 13-06-2005 02:53:04 11.3 C 6.43 g/m*3 11.3 C 0 km/h
1095 13-06-2005 03:05:04 11 C 6.41 g/m*3 11 C 0 km/h
1096 13-06-2005 03:17:03 10.5 C 6.5 g/m*3 10.5 C 0 km/h
1097 13-06-2005 03:29:03 10.4 C 6.55 g/m*3 10.4 C 0 km/h
1098 13-06-2005 03:41:02 10.3 C 6.61 g/m*3 10.3 C 0 km/h
1099 13-06-2005 03:53:02 10.1 C 6.52 g/m*3 10.1 C 0 km/h
1100 13-06-2005 04:05:02 10 C 6.58 g/m*3 10 C 0 km/h
Sensor: Nr:Datum:Temp:Abs-Feuchte:Windchill:Wind:
Aussen-T/F 1101 13-06-2005 04:17:03 9.8 C 6.68 g/m*3 9.8 C 0 km/h
1102 13-06-2005 04:29:03 9.6 C 6.6 g/m*3 9.6 C 0 km/h
1103 13-06-2005 04:41:03 9.5 C 6.64 g/m*3 9.5 C 0 km/h
1104 13-06-2005 04:53:02 9.4 C 6.6 g/m*3 9.4 C 0 km/h
1105 13-06-2005 05:05:02 9.4 C 6.6 g/m*3 9.4 C 0 km/h
1106 13-06-2005 05:17:02 9.4 C 6.6 g/m*3 9.4 C 0 km/h
1107 13-06-2005 05:29:02 9.4 C 6.6 g/m*3 9.4 C 0 km/h
1108 13-06-2005 05:41:02 9.4 C 6.6 g/m*3 9.4 C 0 km/h
1109 13-06-2005 05:53:02 9.3 C 6.56 g/m*3 9.3 C 0 km/h
1110 13-06-2005 06:05:03 9.4 C 6.6 g/m*3 9.4 C 0 km/h
1111 13-06-2005 06:17:05 9.7 C 6.73 g/m*3 9.7 C 0 km/h
1112 13-06-2005 06:29:05 10 C 6.58 g/m*3 10 C 0 km/h
1113 13-06-2005 06:41:03 10 C 6.67 g/m*3 10 C 0 km/h
1114 13-06-2005 06:53:02 10.3 C 6.7 g/m*3 10.3 C 0 km/h
1115 13-06-2005 07:05:03 10.2 C 6.76 g/m*3 10.2 C 0 km/h
1116 13-06-2005 07:17:02 10.7 C 6.97 g/m*3 10.7 C 0 km/h
1117 13-06-2005 07:29:02 11.2 C 6.99 g/m*3 11.2 C 0 km/h
1118 13-06-2005 07:41:02 11.7 C 7.22 g/m*3 11.7 C 0 km/h
1119 13-06-2005 07:53:02 12.2 C 7.01 g/m*3 12.2 C 0 km/h
1120 13-06-2005 08:05:02 12.6 C 7.19 g/m*3 12.6 C 0 km/h
1121 13-06-2005 08:17:02 13.2 C 6.89 g/m*3 13.2 C 0 km/h
1122 13-06-2005 08:29:02 13.5 C 6.78 g/m*3 13.5 C 0 km/h
1123 13-06-2005 08:41:02 13.9 C 6.71 g/m*3 13.9 C 0 km/h
1124 13-06-2005 08:53:01 14 C 6.51 g/m*3 14 C 0 km/h
1125 13-06-2005 09:05:02 14.4 C 6.8 g/m*3 14.4 C 0 km/h
Sensor: Nr:Datum:Temp:Abs-Feuchte:Windchill:Wind:
Aussen-T/F 1126 13-06-2005 09:17:01 14.8 C 6.84 g/m*3 14.8 C 0 km/h
1127 13-06-2005 09:29:02 15.5 C 6.87 g/m*3 15.5 C 0 km/h
1128 13-06-2005 09:41:01 15.3 C 6.66 g/m*3 15.3 C 0 km/h
1129 13-06-2005 09:53:01 16 C 6.95 g/m*3 16 C 0 km/h
1130 13-06-2005 10:05:02 15.9 C 7.04 g/m*3 15.9 C 0 km/h
1131 13-06-2005 10:17:01 16.3 C 7.08 g/m*3 16.3 C 0 km/h
1132 13-06-2005 10:29:01 16.2 C 7.03 g/m*3 16.2 C 0 km/h
1133 13-06-2005 10:41:01 16 C 6.54 g/m*3 16 C 0 km/h
1134 13-06-2005 10:53:01 16.7 C 6.68 g/m*3 16.7 C 0 km/h
1135 13-06-2005 11:05:02 17.2 C 6.59 g/m*3 17.2 C 0 km/h
1136 13-06-2005 11:17:02 17.2 C 6.3 g/m*3 17.2 C 0 km/h
1137 13-06-2005 11:29:02 17.7 C 6.19 g/m*3 17.7 C 0 km/h
1138 13-06-2005 11:41:01 17.6 C 5.55 g/m*3 17.6 C 0 km/h
1139 13-06-2005 11:53:02 18.5 C 5.7 g/m*3 18.5 C 0 km/h
1140 13-06-2005 12:05:02 18.5 C 5.54 g/m*3 18.5 C 0 km/h
1141 13-06-2005 12:17:02 19.5 C 5.2 g/m*3 19.5 C 0 km/h
1142 13-06-2005 12:29:02 19.6 C 4.9 g/m*3 19.6 C 0 km/h
1143 13-06-2005 12:41:02 19.2 C 5.11 g/m*3 19.2 C 0 km/h
1144 13-06-2005 12:53:02 19.5 C 4.87 g/m*3 19.5 C 0 km/h
1145 13-06-2005 13:05:03 19.5 C 4.53 g/m*3 19.5 C 0 km/h
1146 13-06-2005 13:17:02 21.5 C 4.34 g/m*3 21.5 C 0 km/h
1147 13-06-2005 13:29:02 19.7 C 4.08 g/m*3 19.7 C 0 km/h
1148 13-06-2005 13:41:02 20.7 C 3.78 g/m*3 20.7 C 0 km/h
1149 13-06-2005 13:53:01 21.1 C 4.05 g/m*3 21.1 C 0 km/h
1150 13-06-2005 14:05:02 20.6 C 5.01 g/m*3 20.6 C 0 km/h
Sensor: Nr:Datum:Temp:Abs-Feuchte:Windchill:Wind:
Aussen-T/F 1151 13-06-2005 14:17:02 22 C 5.05 g/m*3 22 C 0 km/h
1152 13-06-2005 14:29:02 22 C 5.05 g/m*3 22 C 0 km/h
1153 13-06-2005 14:41:01 21.7 C 5.15 g/m*3 21.7 C 0 km/h
1154 13-06-2005 14:53:01 22.9 C 5.31 g/m*3 22.9 C 0 km/h
1155 13-06-2005 15:05:02 22.1 C 4.88 g/m*3 22.1 C 0 km/h
1156 13-06-2005 15:17:02 22.7 C 5.25 g/m*3 22.7 C 0 km/h
1157 13-06-2005 15:29:02 23.3 C 5.23 g/m*3 23.3 C 0 km/h
1158 13-06-2005 15:41:02 24.8 C 5.01 g/m*3 24.8 C 0 km/h
1159 13-06-2005 15:53:02 24.7 C 4.53 g/m*3 24.7 C 0 km/h
1160 13-06-2005 16:05:02 24.8 C 4.78 g/m*3 24.8 C 0 km/h
1161 13-06-2005 16:17:02 24.2 C 4.62 g/m*3 24.2 C 0 km/h
1162 13-06-2005 16:29:02 24.1 C 5.03 g/m*3 24.1 C 0 km/h
1163 13-06-2005 16:41:02 24.8 C 4.78 g/m*3 24.8 C 0 km/h
1164 13-06-2005 16:53:01 24.6 C 4.5 g/m*3 24.6 C 0 km/h
1165 13-06-2005 17:05:02 25.5 C 4.73 g/m*3 25.5 C 0 km/h
1166 13-06-2005 17:17:01 24.8 C 4.55 g/m*3 24.8 C 0 km/h
1167 13-06-2005 17:29:01 26.6 C 5.03 g/m*3 26.6 C 0 km/h
1168 13-06-2005 17:41:02 27.3 C 5.23 g/m*3 27.3 C 0 km/h
1169 13-06-2005 17:53:02 27.1 C 5.18 g/m*3 27.1 C 0 km/h
1170 13-06-2005 18:05:02 27.8 C 5.38 g/m*3 27.8 C 0 km/h
1171 13-06-2005 18:17:02 26.6 C 5.03 g/m*3 26.6 C 0 km/h
1172 13-06-2005 18:29:02 25.5 C 4.73 g/m*3 25.5 C 0 km/h
1173 13-06-2005 18:41:02 25.7 C 4.79 g/m*3 25.7 C 0 km/h
1174 13-06-2005 18:53:01 27.3 C 5.23 g/m*3 27.3 C 0 km/h
1175 13-06-2005 19:05:02 27.3 C 5.23 g/m*3 27.3 C 0 km/h
Sensor: Nr:Datum:Temp:Abs-Feuchte:Windchill:Wind:
Aussen-T/F 1176 13-06-2005 19:17:01 27 C 5.15 g/m*3 27 C 0 km/h
1177 13-06-2005 19:29:01 25.6 C 4.76 g/m*3 25.6 C 0 km/h
1178 13-06-2005 19:41:01 25.4 C 4.71 g/m*3 25.4 C 0 km/h
1179 13-06-2005 19:53:03 25.6 C 4.76 g/m*3 25.6 C 0 km/h
1180 13-06-2005 20:05:03 25.2 C 4.66 g/m*3 25.2 C 0 km/h
1181 13-06-2005 20:17:03 25.2 C 4.66 g/m*3 25.2 C 0 km/h
1182 13-06-2005 20:29:03 24.3 C 5.75 g/m*3 24.3 C 0 km/h
1183 13-06-2005 20:41:02 23.8 C 5.59 g/m*3 23.8 C 0 km/h
1184 13-06-2005 20:53:02 23.5 C 5.92 g/m*3 23.5 C 0 km/h
1185 13-06-2005 21:05:01 22.3 C 6.12 g/m*3 22.3 C 0 km/h
1186 13-06-2005 21:17:02 20.9 C 6.37 g/m*3 20.9 C 0 km/h
1187 13-06-2005 21:29:03 19.8 C 6.32 g/m*3 19.8 C 0 km/h
1188 13-06-2005 21:41:02 19 C 6.36 g/m*3 19 C 0 km/h
1189 13-06-2005 21:53:02 18.2 C 6.37 g/m*3 18.2 C 0 km/h
1190 13-06-2005 22:05:02 17.5 C 6.26 g/m*3 17.5 C 0 km/h
1191 13-06-2005 22:17:02 17.1 C 6.55 g/m*3 17.1 C 0 km/h
1192 13-06-2005 22:29:02 16.8 C 6.43 g/m*3 16.8 C 0 km/h
1193 13-06-2005 22:41:02 16.4 C 6.42 g/m*3 16.4 C 0 km/h
1194 13-06-2005 22:53:02 15.8 C 6.6 g/m*3 15.8 C 0 km/h
1195 13-06-2005 23:05:02 15.5 C 6.61 g/m*3 15.5 C 0 km/h
1196 13-06-2005 23:17:02 15.2 C 6.62 g/m*3 15.2 C 0 km/h
1197 13-06-2005 23:29:02 15.1 C 6.58 g/m*3 15.1 C 0 km/h
1198 13-06-2005 23:41:02 14.6 C 6.76 g/m*3 14.6 C 0 km/h
1199 13-06-2005 23:53:02 14.3 C 6.76 g/m*3 14.3 C 0 km/h
1200 14-06-2005 00:05:02 14 C 6.75 g/m*3 14 C 0 km/h
Sensor: Nr:Datum:Temp:Abs-Feuchte:Windchill:Wind:
Aussen-T/F 1201 14-06-2005 00:17:02 13.8 C 6.79 g/m*3 13.8 C 0 km/h
1202 14-06-2005 00:29:02 13.5 C 6.78 g/m*3 13.5 C 0 km/h
1203 14-06-2005 00:41:03 13.3 C 6.82 g/m*3 13.3 C 0 km/h
1204 14-06-2005 00:53:02 13 C 6.69 g/m*3 13 C 0 km/h
1205 14-06-2005 01:05:02 13 C 6.8 g/m*3 13 C 0 km/h
1206 14-06-2005 01:17:02 12.8 C 6.83 g/m*3 12.8 C 0 km/h
1207 14-06-2005 01:29:02 12.5 C 6.82 g/m*3 12.5 C 0 km/h
1208 14-06-2005 01:41:02 12.4 C 6.77 g/m*3 12.4 C 0 km/h
1209 14-06-2005 01:53:02 12.3 C 6.84 g/m*3 12.3 C 0 km/h
1210 14-06-2005 02:05:02 12 C 6.82 g/m*3 12 C 0 km/h
1211 14-06-2005 02:17:02 11.8 C 6.84 g/m*3 11.8 C 0 km/h
1212 14-06-2005 02:29:02 11.5 C 6.71 g/m*3 11.5 C 0 km/h
1213 14-06-2005 02:41:03 11.2 C 6.69 g/m*3 11.2 C 0 km/h
1214 14-06-2005 02:54:03 11.1 C 6.65 g/m*3 11.1 C 0 km/h
1215 14-06-2005 03:06:03 10.9 C 6.66 g/m*3 10.9 C 0 km/h
1216 14-06-2005 03:18:03 10.6 C 6.64 g/m*3 10.6 C 0 km/h
1217 14-06-2005 03:30:03 10.5 C 6.6 g/m*3 10.5 C 0 km/h
1218 14-06-2005 03:42:02 10.3 C 6.61 g/m*3 10.3 C 0 km/h
1219 14-06-2005 03:54:02 10.4 C 6.55 g/m*3 10.4 C 0 km/h
1220 14-06-2005 04:06:02 10.1 C 6.52 g/m*3 10.1 C 0 km/h
1221 14-06-2005 04:18:02 9.8 C 6.59 g/m*3 9.8 C 0 km/h
1222 14-06-2005 04:30:02 9.7 C 6.55 g/m*3 9.7 C 0 km/h
1223 14-06-2005 04:42:02 9.5 C 6.55 g/m*3 9.5 C 0 km/h
1224 14-06-2005 04:54:02 9.4 C 6.51 g/m*3 9.4 C 0 km/h
1225 14-06-2005 05:06:02 9.3 C 6.56 g/m*3 9.3 C 0 km/h
Sensor: Nr:Datum:Temp:Abs-Feuchte:Windchill:Wind:
Aussen-T/F 1226 14-06-2005 05:18:03 9.2 C 6.61 g/m*3 9.2 C 0 km/h
1227 14-06-2005 05:30:03 9 C 6.52 g/m*3 9 C 0 km/h
1228 14-06-2005 05:42:03 9.1 C 6.57 g/m*3 9.1 C 0 km/h
1229 14-06-2005 05:54:02 9.1 C 6.57 g/m*3 9.1 C 0 km/h
1230 14-06-2005 06:06:02 9.3 C 6.65 g/m*3 9.3 C 0 km/h
1231 14-06-2005 06:18:02 9 C 6.61 g/m*3 9 C 0 km/h
1232 14-06-2005 06:30:02 9 C 6.7 g/m*3 9 C 0 km/h
1233 14-06-2005 06:42:02 9.1 C 6.74 g/m*3 9.1 C 0 km/h
1234 14-06-2005 06:54:02 9.3 C 6.74 g/m*3 9.3 C 0 km/h
1235 14-06-2005 07:06:01 9.5 C 6.83 g/m*3 9.5 C 0 km/h
1236 14-06-2005 07:18:01 9.7 C 6.82 g/m*3 9.7 C 0 km/h
1237 14-06-2005 07:30:01 10.4 C 6.94 g/m*3 10.4 C 0 km/h
1238 14-06-2005 07:42:01 10.5 C 6.6 g/m*3 10.5 C 0 km/h
1239 14-06-2005 07:54:02 10.6 C 6.64 g/m*3 10.6 C 0 km/h
1240 14-06-2005 08:06:01 11.1 C 6.75 g/m*3 11.1 C 0 km/h
1241 14-06-2005 08:18:02 11.9 C 6.78 g/m*3 11.9 C 0 km/h
1242 14-06-2005 08:30:02 12.2 C 6.69 g/m*3 12.2 C 0 km/h
1243 14-06-2005 08:42:01 12.5 C 6.82 g/m*3 12.5 C 0 km/h
1244 14-06-2005 08:54:02 13 C 6.92 g/m*3 13 C 0 km/h
1245 14-06-2005 09:06:02 13.9 C 7.19 g/m*3 13.9 C 0 km/h
1246 14-06-2005 09:18:01 14.4 C 7.29 g/m*3 14.4 C 0 km/h
1247 14-06-2005 09:30:01 15.1 C 7.35 g/m*3 15.1 C 0 km/h
1248 14-06-2005 09:42:02 15.6 C 7.58 g/m*3 15.6 C 0 km/h
1249 14-06-2005 09:54:02 16.5 C 7.44 g/m*3 16.5 C 0 km/h
1250 14-06-2005 10:06:01 17.2 C 7.61 g/m*3 17.2 C 0 km/h
Sensor: Nr:Datum:Temp:Abs-Feuchte:Windchill:Wind:
Aussen-T/F 1251 14-06-2005 10:18:01 18.2 C 7.62 g/m*3 18.2 C 0 km/h
1252 14-06-2005 10:30:01 19.3 C 7.63 g/m*3 19.3 C 0 km/h
1253 14-06-2005 10:42:01 20 C 7.43 g/m*3 20 C 0 km/h
1254 14-06-2005 10:54:02 20.9 C 8.01 g/m*3 20.9 C 0 km/h
1255 14-06-2005 11:06:02 21.3 C 7.64 g/m*3 21.3 C 0 km/h
1256 14-06-2005 11:18:02 21.5 C 7.92 g/m*3 21.5 C 0 km/h
1257 14-06-2005 11:30:02 21.7 C 7.82 g/m*3 21.7 C 0 km/h
1258 14-06-2005 11:42:02 21.9 C 7.72 g/m*3 21.9 C 0 km/h
1259 14-06-2005 11:54:02 22.3 C 7.11 g/m*3 22.3 C 0 km/h
1260 14-06-2005 12:06:02 22.6 C 7.83 g/m*3 22.6 C 0 km/h
1261 14-06-2005 12:18:02 22.6 C 7.83 g/m*3 22.6 C 0 km/h
1262 14-06-2005 12:30:02 22.7 C 7.27 g/m*3 22.7 C 0 km/h
1263 14-06-2005 12:42:02 23.8 C 7.74 g/m*3 23.8 C 0 km/h
1264 14-06-2005 12:54:02 24.1 C 7.22 g/m*3 24.1 C 0 km/h
1265 14-06-2005 13:06:02 23.7 C 7.27 g/m*3 23.7 C 0 km/h
1266 14-06-2005 13:18:02 23.5 C 7.4 g/m*3 23.5 C 0 km/h
1267 14-06-2005 13:30:02 23 C 7.81 g/m*3 23 C 0 km/h
1268 14-06-2005 13:42:02 22.1 C 8.2 g/m*3 22.1 C 0 km/h
1269 14-06-2005 13:54:02 21.6 C 8.72 g/m*3 21.6 C 0 km/h
1270 14-06-2005 14:06:02 21.4 C 8.44 g/m*3 21.4 C 0 km/h
1271 14-06-2005 14:18:03 21.1 C 8.84 g/m*3 21.1 C 0 km/h
1272 14-06-2005 14:30:03 20.8 C 9.23 g/m*3 20.8 C 0 km/h
1273 14-06-2005 14:42:02 20 C 9.16 g/m*3 20 C 0 km/h
1274 14-06-2005 14:54:02 19.5 C 9.9 g/m*3 19.5 C 0 km/h
1275 14-06-2005 15:06:02 18.9 C 11.18 g/m*3 18.9 C 0 km/h
Sensor: Nr:Datum:Temp:Abs-Feuchte:Windchill:Wind:
Aussen-T/F 1276 14-06-2005 15:18:02 18.1 C 11.12 g/m*3 18.1 C 0 km/h
1277 14-06-2005 15:30:02 18.2 C 11.35 g/m*3 18.2 C 0 km/h
1278 14-06-2005 15:42:02 17.9 C 11.45 g/m*3 17.9 C 0 km/h
1279 14-06-2005 15:54:01 17.7 C 11.32 g/m*3 17.7 C 0 km/h
1280 14-06-2005 16:06:02 17.3 C 11.34 g/m*3 17.3 C 0 km/h
1281 14-06-2005 16:18:01 16.6 C 11.02 g/m*3 16.6 C 0 km/h
1282 14-06-2005 16:30:01 16.4 C 11.17 g/m*3 16.4 C 0 km/h
1283 14-06-2005 16:42:01 16.5 C 11.09 g/m*3 16.5 C 0 km/h
1284 14-06-2005 16:54:02 17 C 10.42 g/m*3 17 C 0 km/h
1285 14-06-2005 17:06:02 17.4 C 10.23 g/m*3 17.4 C 0 km/h
1286 14-06-2005 17:18:02 17.7 C 9.96 g/m*3 17.7 C 0 km/h
1287 14-06-2005 17:30:02 19.6 C 10.47 g/m*3 19.6 C 0 km/h
1288 14-06-2005 17:42:02 21 C 10.08 g/m*3 21 C 0 km/h
1289 14-06-2005 17:54:02 21.6 C 10.43 g/m*3 21.6 C 0 km/h
1290 14-06-2005 18:06:02 21.9 C 10.42 g/m*3 21.9 C 0 km/h
1291 14-06-2005 18:18:02 21.6 C 10.43 g/m*3 21.6 C 0 km/h
1292 14-06-2005 18:30:02 23.1 C 10.75 g/m*3 23.1 C 0 km/h
1293 14-06-2005 18:42:02 23 C 10.07 g/m*3 23 C 0 km/h
1294 14-06-2005 18:54:02 22.3 C 10.47 g/m*3 22.3 C 0 km/h
1295 14-06-2005 19:06:02 23.3 C 10.45 g/m*3 23.3 C 0 km/h
1296 14-06-2005 19:18:02 23.7 C 10.27 g/m*3 23.7 C 0 km/h
1297 14-06-2005 19:30:02 23.6 C 10.21 g/m*3 23.6 C 0 km/h
1298 14-06-2005 19:42:02 24.1 C 10.06 g/m*3 24.1 C 0 km/h
1299 14-06-2005 19:54:01 24.5 C 10.07 g/m*3 24.5 C 0 km/h
1300 14-06-2005 20:06:01 24 C 10.01 g/m*3 24 C 0 km/h
Sensor: Nr:Datum:Temp:Abs-Feuchte:Windchill:Wind:
Aussen-T/F 1301 14-06-2005 20:18:02 23.4 C 10.3 g/m*3 23.4 C 0 km/h
1302 14-06-2005 20:30:02 22.5 C 10.39 g/m*3 22.5 C 0 km/h
1303 14-06-2005 20:42:01 21.3 C 10.62 g/m*3 21.3 C 0 km/h
1304 14-06-2005 20:54:02 20.2 C 10.67 g/m*3 20.2 C 0 km/h
1305 14-06-2005 21:06:01 19.4 C 10.68 g/m*3 19.4 C 0 km/h
1306 14-06-2005 21:18:02 18.8 C 10.79 g/m*3 18.8 C 0 km/h
1307 14-06-2005 21:30:02 18.5 C 10.76 g/m*3 18.5 C 0 km/h
1308 14-06-2005 21:42:02 18.4 C 10.85 g/m*3 18.4 C 0 km/h
1309 14-06-2005 21:54:02 18.5 C 10.76 g/m*3 18.5 C 0 km/h
1310 14-06-2005 22:06:01 18.6 C 10.82 g/m*3 18.6 C 0 km/h
1311 14-06-2005 22:18:02 18.3 C 10.79 g/m*3 18.3 C 0 km/h
1312 14-06-2005 22:30:02 17.9 C 10.99 g/m*3 17.9 C 0 km/h
1313 14-06-2005 22:42:02 17.8 C 11.08 g/m*3 17.8 C 0 km/h
1314 14-06-2005 22:54:02 17.7 C 10.86 g/m*3 17.7 C 0 km/h
1315 14-06-2005 23:06:02 17.4 C 10.82 g/m*3 17.4 C 0 km/h
1316 14-06-2005 23:18:01 17.1 C 10.77 g/m*3 17.1 C 0 km/h
1317 14-06-2005 23:30:01 16.8 C 10.72 g/m*3 16.8 C 0 km/h
1318 14-06-2005 23:42:02 16.5 C 10.67 g/m*3 16.5 C 0 km/h
1319 14-06-2005 23:54:02 16.1 C 10.69 g/m*3 16.1 C 0 km/h
1320 15-06-2005 00:06:02 15.8 C 10.63 g/m*3 15.8 C 0 km/h
1321 15-06-2005 00:18:03 15.6 C 10.64 g/m*3 15.6 C 0 km/h
1322 15-06-2005 00:30:03 15.5 C 10.71 g/m*3 15.5 C 0 km/h
1323 15-06-2005 00:42:03 15.4 C 10.77 g/m*3 15.4 C 0 km/h
1324 15-06-2005 00:54:02 15.1 C 10.71 g/m*3 15.1 C 0 km/h
1325 15-06-2005 01:06:02 14.8 C 10.64 g/m*3 14.8 C 0 km/h
Sensor: Nr:Datum:Temp:Abs-Feuchte:Windchill:Wind:
Aussen-T/F 1326 15-06-2005 01:18:02 14.9 C 10.71 g/m*3 14.9 C 0 km/h
1327 15-06-2005 01:30:02 14.8 C 10.64 g/m*3 14.8 C 0 km/h
1328 15-06-2005 01:42:02 14.6 C 10.51 g/m*3 14.6 C 0 km/h
1329 15-06-2005 01:54:02 14.4 C 10.38 g/m*3 14.4 C 0 km/h
1330 15-06-2005 02:06:01 14.2 C 10.26 g/m*3 14.2 C 0 km/h
1331 15-06-2005 02:18:01 14.1 C 10.19 g/m*3 14.1 C 0 km/h
1332 15-06-2005 02:30:01 13.9 C 10.31 g/m*3 13.9 C 0 km/h
1333 15-06-2005 02:42:01 13.8 C 10.25 g/m*3 13.8 C 0 km/h
1334 15-06-2005 02:55:03 13.7 C 10.07 g/m*3 13.7 C 0 km/h
1335 15-06-2005 03:07:03 13.6 C 10.12 g/m*3 13.6 C 0 km/h
1336 15-06-2005 03:19:03 13.4 C 10 g/m*3 13.4 C 0 km/h
1337 15-06-2005 03:31:02 13.4 C 10.11 g/m*3 13.4 C 0 km/h
1338 15-06-2005 03:43:02 13.2 C 9.99 g/m*3 13.2 C 0 km/h
1339 15-06-2005 03:55:02 13.1 C 9.81 g/m*3 13.1 C 0 km/h
1340 15-06-2005 04:07:02 13 C 9.75 g/m*3 13 C 0 km/h
1341 15-06-2005 04:19:02 12.6 C 9.51 g/m*3 12.6 C 0 km/h
1342 15-06-2005 04:31:02 12.7 C 9.68 g/m*3 12.7 C 0 km/h
1343 15-06-2005 04:43:02 12.7 C 9.8 g/m*3 12.7 C 0 km/h
1344 15-06-2005 04:55:02 12.5 C 9.68 g/m*3 12.5 C 0 km/h
1345 15-06-2005 05:07:01 12.2 C 9.5 g/m*3 12.2 C 0 km/h
1346 15-06-2005 05:19:02 12.1 C 9.44 g/m*3 12.1 C 0 km/h
1347 15-06-2005 05:31:01 12 C 9.38 g/m*3 12 C 0 km/h
1348 15-06-2005 05:43:01 12.1 C 9.44 g/m*3 12.1 C 0 km/h
1349 15-06-2005 05:55:02 12.2 C 9.6 g/m*3 12.2 C 0 km/h
1350 15-06-2005 06:07:02 12.5 C 9.89 g/m*3 12.5 C 0 km/h
Sensor: Nr:Datum:Temp:Abs-Feuchte:Windchill:Wind:
Aussen-T/F 1351 15-06-2005 06:19:02 13 C 10.09 g/m*3 13 C 0 km/h
1352 15-06-2005 06:31:02 13.2 C 10.22 g/m*3 13.2 C 0 km/h
1353 15-06-2005 06:43:02 13.2 C 9.99 g/m*3 13.2 C 0 km/h
1354 15-06-2005 06:55:02 13.1 C 9.93 g/m*3 13.1 C 0 km/h
1355 15-06-2005 07:07:02 12.9 C 10.03 g/m*3 12.9 C 0 km/h
1356 15-06-2005 07:19:01 12.9 C 10.03 g/m*3 12.9 C 0 km/h
1357 15-06-2005 07:31:02 13.2 C 10.1 g/m*3 13.2 C 0 km/h
1358 15-06-2005 07:43:02 13.2 C 9.99 g/m*3 13.2 C 0 km/h
1359 15-06-2005 07:55:02 13.2 C 9.99 g/m*3 13.2 C 0 km/h
1360 15-06-2005 08:07:02 13.4 C 10.11 g/m*3 13.4 C 0 km/h
1361 15-06-2005 08:19:02 13.7 C 10.3 g/m*3 13.7 C 0 km/h
1362 15-06-2005 08:31:02 13.7 C 10.18 g/m*3 13.7 C 0 km/h
1363 15-06-2005 08:43:02 14 C 10.25 g/m*3 14 C 0 km/h
1364 15-06-2005 08:55:02 14.5 C 10.2 g/m*3 14.5 C 0 km/h
1365 15-06-2005 09:07:02 15.1 C 10.06 g/m*3 15.1 C 0 km/h
1366 15-06-2005 09:19:02 15.6 C 9.97 g/m*3 15.6 C 0 km/h
1367 15-06-2005 09:31:02 15.8 C 9.96 g/m*3 15.8 C 0 km/h
1368 15-06-2005 09:43:03 16.1 C 10.14 g/m*3 16.1 C 0 km/h
1369 15-06-2005 09:55:02 16.5 C 10.53 g/m*3 16.5 C 0 km/h
1370 15-06-2005 10:07:02 17.5 C 11.03 g/m*3 17.5 C 0 km/h
1371 15-06-2005 10:19:02 18.3 C 10.94 g/m*3 18.3 C 0 km/h
1372 15-06-2005 10:31:02 18.9 C 11.02 g/m*3 18.9 C 0 km/h
1373 15-06-2005 10:43:02 19.6 C 10.64 g/m*3 19.6 C 0 km/h
1374 15-06-2005 10:55:01 19.8 C 10.42 g/m*3 19.8 C 0 km/h
1375 15-06-2005 11:07:02 20.7 C 10.62 g/m*3 20.7 C 0 km/h
Sensor: Nr:Datum:Temp:Abs-Feuchte:Windchill:Wind:
Aussen-T/F 1376 15-06-2005 11:19:01 21.5 C 10.94 g/m*3 21.5 C 0 km/h
1377 15-06-2005 11:31:02 22.5 C 10.99 g/m*3 22.5 C 0 km/h
1378 15-06-2005 11:43:02 22.7 C 10.91 g/m*3 22.7 C 0 km/h
1379 15-06-2005 11:55:02 23.4 C 10.51 g/m*3 23.4 C 0 km/h
1380 15-06-2005 12:07:02 24.8 C 10.7 g/m*3 24.8 C 0 km/h
1381 15-06-2005 12:19:02 23.2 C 10.39 g/m*3 23.2 C 0 km/h
1382 15-06-2005 12:31:02 22.9 C 11.04 g/m*3 22.9 C 0 km/h
1383 15-06-2005 12:43:02 22.9 C 11.24 g/m*3 22.9 C 0 km/h
1384 15-06-2005 12:55:02 24.7 C 9.28 g/m*3 24.7 C 0 km/h
1385 15-06-2005 13:07:02 24 C 10.23 g/m*3 24 C 0 km/h
1386 15-06-2005 13:19:02 25.6 C 10.71 g/m*3 25.6 C 0 km/h
1387 15-06-2005 13:31:02 24.6 C 9.23 g/m*3 24.6 C 0 km/h
1388 15-06-2005 13:43:02 25.7 C 10.53 g/m*3 25.7 C 0 km/h
1389 15-06-2005 13:55:02 25.8 C 8.91 g/m*3 25.8 C 0 km/h
1390 15-06-2005 14:07:02 27.5 C 7.14 g/m*3 27.5 C 0 km/h
1391 15-06-2005 14:19:02 26.9 C 6.4 g/m*3 26.9 C 0 km/h
1392 15-06-2005 14:31:02 25.9 C 6.05 g/m*3 25.9 C 0 km/h
1393 15-06-2005 14:43:02 26.1 C 7.34 g/m*3 26.1 C 0 km/h
1394 15-06-2005 14:55:02 27.2 C 6.77 g/m*3 27.2 C 0 km/h
1395 15-06-2005 15:07:03 27.2 C 6.51 g/m*3 27.2 C 0 km/h
1396 15-06-2005 15:19:02 26.5 C 6.51 g/m*3 26.5 C 0 km/h
1397 15-06-2005 15:31:02 27.5 C 6.88 g/m*3 27.5 C 0 km/h
1398 15-06-2005 15:43:02 27.3 C 6.8 g/m*3 27.3 C 0 km/h
1399 15-06-2005 15:55:02 28.1 C 6.84 g/m*3 28.1 C 0 km/h
1400 15-06-2005 16:07:02 28.7 C 6.22 g/m*3 28.7 C 0 km/h
Sensor: Nr:Datum:Temp:Abs-Feuchte:Windchill:Wind:
Aussen-T/F 1401 15-06-2005 16:19:01 29.2 C 6.68 g/m*3 29.2 C 0 km/h
1402 15-06-2005 16:31:02 29.3 C 6.72 g/m*3 29.3 C 0 km/h
1403 15-06-2005 16:43:02 28.3 C 6.63 g/m*3 28.3 C 0 km/h
1404 15-06-2005 16:55:02 28.1 C 6.84 g/m*3 28.1 C 0 km/h
1405 15-06-2005 17:07:02 27.3 C 6.54 g/m*3 27.3 C 0 km/h
1406 15-06-2005 17:19:03 28.2 C 6.87 g/m*3 28.2 C 0 km/h
1407 15-06-2005 17:31:02 28.1 C 6.29 g/m*3 28.1 C 0 km/h
1408 15-06-2005 17:43:02 27.3 C 6.54 g/m*3 27.3 C 0 km/h
1409 15-06-2005 17:55:02 28.5 C 6.15 g/m*3 28.5 C 0 km/h
1410 15-06-2005 18:07:01 29.2 C 5.81 g/m*3 29.2 C 0 km/h
1411 15-06-2005 18:19:02 28.5 C 6.43 g/m*3 28.5 C 0 km/h
1412 15-06-2005 18:31:02 28 C 5.98 g/m*3 28 C 0 km/h
1413 15-06-2005 18:43:02 28.4 C 6.39 g/m*3 28.4 C 0 km/h
1414 15-06-2005 18:55:02 27.6 C 6.92 g/m*3 27.6 C 0 km/h
1415 15-06-2005 19:07:02 27.2 C 7.55 g/m*3 27.2 C 0 km/h
1416 15-06-2005 19:19:03 27.3 C 7.59 g/m*3 27.3 C 0 km/h
1417 15-06-2005 19:31:02 26.6 C 7.8 g/m*3 26.6 C 0 km/h
1418 15-06-2005 19:43:02 25.3 C 8.19 g/m*3 25.3 C 0 km/h
1419 15-06-2005 19:55:02 24.6 C 8.33 g/m*3 24.6 C 0 km/h
1420 15-06-2005 20:07:02 24.2 C 8.14 g/m*3 24.2 C 0 km/h
1421 15-06-2005 20:19:02 24 C 8.27 g/m*3 24 C 0 km/h
1422 15-06-2005 20:31:05 23.8 C 8.6 g/m*3 23.8 C 0 km/h
1423 15-06-2005 20:43:05 23.7 C 8.77 g/m*3 23.7 C 0 km/h
1424 15-06-2005 20:55:02 23.8 C 9.03 g/m*3 23.8 C 0 km/h
1425 15-06-2005 21:07:02 23.3 C 8.99 g/m*3 23.3 C 0 km/h
Sensor: Nr:Datum:Temp:Abs-Feuchte:Windchill:Wind:
Aussen-T/F 1426 15-06-2005 21:19:02 22.5 C 8.99 g/m*3 22.5 C 0 km/h
1427 15-06-2005 21:31:02 22.1 C 8.98 g/m*3 22.1 C 0 km/h
1428 15-06-2005 21:43:02 21.8 C 9.21 g/m*3 21.8 C 0 km/h
1429 15-06-2005 21:55:02 21.4 C 9.19 g/m*3 21.4 C 0 km/h
1430 15-06-2005 22:07:02 21.2 C 9.08 g/m*3 21.2 C 0 km/h
1431 15-06-2005 22:19:03 21.1 C 9.21 g/m*3 21.1 C 0 km/h
1432 15-06-2005 22:31:02 21.2 C 9.27 g/m*3 21.2 C 0 km/h
1433 15-06-2005 22:43:03 21 C 9.34 g/m*3 21 C 0 km/h
1434 15-06-2005 22:55:02 21.2 C 9.27 g/m*3 21.2 C 0 km/h
1435 15-06-2005 23:07:01 21.2 C 8.9 g/m*3 21.2 C 0 km/h
1436 15-06-2005 23:19:02 21.1 C 8.66 g/m*3 21.1 C 0 km/h
1437 15-06-2005 23:31:02 20.8 C 8.51 g/m*3 20.8 C 0 km/h
1438 15-06-2005 23:43:02 20.8 C 8.51 g/m*3 20.8 C 0 km/h
1439 15-06-2005 23:55:02 20.8 C 8.15 g/m*3 20.8 C 0 km/h
1440 16-06-2005 00:07:02 20.8 C 7.79 g/m*3 20.8 C 0 km/h
1441 16-06-2005 00:19:02 20.6 C 7.34 g/m*3 20.6 C 0 km/h
1442 16-06-2005 00:31:01 20.3 C 7.39 g/m*3 20.3 C 0 km/h
1443 16-06-2005 00:43:01 20.1 C 7.3 g/m*3 20.1 C 0 km/h
1444 16-06-2005 00:55:02 20 C 7.26 g/m*3 20 C 0 km/h
1445 16-06-2005 01:07:02 19.7 C 7.47 g/m*3 19.7 C 0 km/h
1446 16-06-2005 01:19:02 19.7 C 7.47 g/m*3 19.7 C 0 km/h
1447 16-06-2005 01:31:01 19.6 C 7.6 g/m*3 19.6 C 0 km/h
1448 16-06-2005 01:43:01 19.5 C 7.72 g/m*3 19.5 C 0 km/h
1449 16-06-2005 01:55:02 19.4 C 7.67 g/m*3 19.4 C 0 km/h
1450 16-06-2005 02:07:02 19.3 C 7.63 g/m*3 19.3 C 0 km/h
Sensor: Nr:Datum:Temp:Abs-Feuchte:Windchill:Wind:
Aussen-T/F 1451 16-06-2005 02:19:02 19.1 C 7.54 g/m*3 19.1 C 0 km/h
1452 16-06-2005 02:31:01 19 C 7.66 g/m*3 19 C 0 km/h
1453 16-06-2005 02:43:01 18.9 C 7.78 g/m*3 18.9 C 0 km/h
1454 16-06-2005 02:56:03 18.7 C 7.84 g/m*3 18.7 C 0 km/h
1455 16-06-2005 03:08:03 18.3 C 7.82 g/m*3 18.3 C 0 km/h
1456 16-06-2005 03:20:04 18.3 C 7.97 g/m*3 18.3 C 0 km/h
1457 16-06-2005 03:32:02 18.3 C 7.97 g/m*3 18.3 C 0 km/h
1458 16-06-2005 03:44:02 17.8 C 9.26 g/m*3 17.8 C 0 km/h
1459 16-06-2005 03:56:02 17.8 C 8.8 g/m*3 17.8 C 0 km/h
1460 16-06-2005 04:08:02 18 C 8.45 g/m*3 18 C 0 km/h
1461 16-06-2005 04:20:02 18 C 8.29 g/m*3 18 C 0 km/h
1462 16-06-2005 04:32:02 18 C 8.29 g/m*3 18 C 0 km/h
1463 16-06-2005 04:44:02 17.9 C 8.4 g/m*3 17.9 C 0 km/h
1464 16-06-2005 04:56:02 17.8 C 8.5 g/m*3 17.8 C 0 km/h
1465 16-06-2005 05:08:02 17.5 C 8.5 g/m*3 17.5 C 0 km/h
1466 16-06-2005 05:20:02 17.3 C 8.54 g/m*3 17.3 C 0 km/h
1467 16-06-2005 05:32:03 17.3 C 8.69 g/m*3 17.3 C 0 km/h
1468 16-06-2005 05:44:03 17.5 C 8.8 g/m*3 17.5 C 0 km/h
1469 16-06-2005 05:56:02 17.5 C 8.95 g/m*3 17.5 C 0 km/h
1470 16-06-2005 06:08:02 17.3 C 8.99 g/m*3 17.3 C 0 km/h
1471 16-06-2005 06:20:02 17.3 C 9.13 g/m*3 17.3 C 0 km/h
1472 16-06-2005 06:32:02 17.3 C 9.13 g/m*3 17.3 C 0 km/h
1473 16-06-2005 06:44:02 17.3 C 9.28 g/m*3 17.3 C 0 km/h
1474 16-06-2005 06:56:02 17.5 C 9.39 g/m*3 17.5 C 0 km/h
1475 16-06-2005 07:08:02 17.4 C 9.48 g/m*3 17.4 C 0 km/h
Sensor: Nr:Datum:Temp:Abs-Feuchte:Windchill:Wind:
Aussen-T/F 1476 16-06-2005 07:20:01 17.7 C 9.66 g/m*3 17.7 C 0 km/h
1477 16-06-2005 07:32:02 18 C 9.68 g/m*3 18 C 0 km/h
1478 16-06-2005 07:44:02 17.8 C 9.87 g/m*3 17.8 C 0 km/h
1479 16-06-2005 07:56:02 17.9 C 10.08 g/m*3 17.9 C 0 km/h
1480 16-06-2005 08:08:01 18.1 C 9.89 g/m*3 18.1 C 0 km/h
1481 16-06-2005 08:20:02 18.5 C 10.13 g/m*3 18.5 C 0 km/h
1482 16-06-2005 08:32:02 19 C 10.1 g/m*3 19 C 0 km/h
1483 16-06-2005 08:44:02 19.1 C 10.16 g/m*3 19.1 C 0 km/h
1484 16-06-2005 08:56:03 19.3 C 10.12 g/m*3 19.3 C 0 km/h
1485 16-06-2005 09:08:02 19.4 C 10.01 g/m*3 19.4 C 0 km/h
1486 16-06-2005 09:20:03 19.8 C 10.08 g/m*3 19.8 C 0 km/h
1487 16-06-2005 09:32:02 19.6 C 9.96 g/m*3 19.6 C 0 km/h
1488 16-06-2005 09:44:03 19.8 C 9.91 g/m*3 19.8 C 0 km/h
1489 16-06-2005 09:56:02 20 C 9.85 g/m*3 20 C 0 km/h
1490 16-06-2005 10:08:02 20.4 C 9.91 g/m*3 20.4 C 0 km/h
1491 16-06-2005 10:20:01 20.4 C 9.73 g/m*3 20.4 C 0 km/h
1492 16-06-2005 10:32:02 20.8 C 9.96 g/m*3 20.8 C 0 km/h
1493 16-06-2005 10:44:02 21.2 C 9.64 g/m*3 21.2 C 0 km/h
1494 16-06-2005 10:56:02 21.9 C 9.84 g/m*3 21.9 C 0 km/h
1495 16-06-2005 11:08:02 22.1 C 9.37 g/m*3 22.1 C 0 km/h
1496 16-06-2005 11:20:02 21.7 C 9.92 g/m*3 21.7 C 0 km/h
1497 16-06-2005 11:32:01 21.9 C 10.03 g/m*3 21.9 C 0 km/h
1498 16-06-2005 11:44:01 22 C 9.51 g/m*3 22 C 0 km/h
1499 16-06-2005 11:56:02 22.5 C 9.59 g/m*3 22.5 C 0 km/h
1500 16-06-2005 12:08:02 22.6 C 9.04 g/m*3 22.6 C 0 km/h
Sensor: Nr:Datum:Temp:Abs-Feuchte:Windchill:Wind:
Aussen-T/F 1501 16-06-2005 12:20:02 22.8 C 9.14 g/m*3 22.8 C 0 km/h
1502 16-06-2005 12:32:02 23.3 C 8.57 g/m*3 23.3 C 0 km/h
1503 16-06-2005 12:44:02 23.5 C 8.88 g/m*3 23.5 C 0 km/h
1504 16-06-2005 12:56:02 23.2 C 8.52 g/m*3 23.2 C 0 km/h
1505 16-06-2005 13:08:02 23.9 C 8.44 g/m*3 23.9 C 0 km/h
1506 16-06-2005 13:20:02 24.6 C 8.33 g/m*3 24.6 C 0 km/h
1507 16-06-2005 13:32:02 25.4 C 8.24 g/m*3 25.4 C 0 km/h
1508 16-06-2005 13:44:02 25.1 C 8.57 g/m*3 25.1 C 0 km/h
1509 16-06-2005 13:56:02 24.5 C 8.5 g/m*3 24.5 C 0 km/h
1510 16-06-2005 14:08:02 24.5 C 8.5 g/m*3 24.5 C 0 km/h
1511 16-06-2005 14:20:03 24.5 C 8.73 g/m*3 24.5 C 0 km/h
1512 16-06-2005 14:32:02 24.4 C 8.68 g/m*3 24.4 C 0 km/h
1513 16-06-2005 14:44:02 24.5 C 8.5 g/m*3 24.5 C 0 km/h
1514 16-06-2005 14:56:02 25.1 C 8.57 g/m*3 25.1 C 0 km/h
1515 16-06-2005 15:08:02 25.8 C 8.67 g/m*3 25.8 C 0 km/h
1516 16-06-2005 15:20:02 25.7 C 8.86 g/m*3 25.7 C 0 km/h
1517 16-06-2005 15:32:02 25.7 C 8.86 g/m*3 25.7 C 0 km/h
1518 16-06-2005 15:44:02 25.5 C 8.52 g/m*3 25.5 C 0 km/h
1519 16-06-2005 15:56:02 24.5 C 8.73 g/m*3 24.5 C 0 km/h
1520 16-06-2005 16:08:02 24.3 C 9.07 g/m*3 24.3 C 0 km/h
1521 16-06-2005 16:20:02 23.9 C 9.52 g/m*3 23.9 C 0 km/h
1522 16-06-2005 16:32:02 23.8 C 9.25 g/m*3 23.8 C 0 km/h
1523 16-06-2005 16:44:02 23.7 C 9.2 g/m*3 23.7 C 0 km/h
1524 16-06-2005 16:56:02 24 C 9.14 g/m*3 24 C 0 km/h
1525 16-06-2005 17:08:02 24.8 C 9.1 g/m*3 24.8 C 0 km/h
Sensor: Nr:Datum:Temp:Abs-Feuchte:Windchill:Wind:
Aussen-T/F 1526 16-06-2005 17:20:02 24.9 C 9.16 g/m*3 24.9 C 0 km/h
1527 16-06-2005 17:32:02 26.2 C 9.11 g/m*3 26.2 C 0 km/h
1528 16-06-2005 17:44:02 25.6 C 9.05 g/m*3 25.6 C 0 km/h
1529 16-06-2005 17:56:02 25.3 C 9.13 g/m*3 25.3 C 0 km/h
1530 16-06-2005 18:08:02 25.2 C 9.31 g/m*3 25.2 C 0 km/h
1531 16-06-2005 18:20:02 25 C 8.52 g/m*3 25 C 0 km/h
1532 16-06-2005 18:32:02 25.3 C 8.9 g/m*3 25.3 C 0 km/h
1533 16-06-2005 18:44:02 25 C 8.75 g/m*3 25 C 0 km/h
1534 16-06-2005 18:56:02 24.8 C 8.88 g/m*3 24.8 C 0 km/h
1535 16-06-2005 19:08:03 25 C 9.21 g/m*3 25 C 0 km/h
1536 16-06-2005 19:20:02 25.5 C 9 g/m*3 25.5 C 0 km/h
1537 16-06-2005 19:32:02 25.9 C 8.96 g/m*3 25.9 C 0 km/h
1538 16-06-2005 19:44:02 25.8 C 9.15 g/m*3 25.8 C 0 km/h
1539 16-06-2005 19:56:03 26.2 C 9.35 g/m*3 26.2 C 0 km/h
1540 16-06-2005 20:08:02 25.2 C 9.31 g/m*3 25.2 C 0 km/h
1541 16-06-2005 20:20:02 24.5 C 9.85 g/m*3 24.5 C 0 km/h
1542 16-06-2005 20:32:02 23.9 C 9.74 g/m*3 23.9 C 0 km/h
1543 16-06-2005 20:44:02 23.3 C 9.41 g/m*3 23.3 C 0 km/h
1544 16-06-2005 20:56:02 23.1 C 8.89 g/m*3 23.1 C 0 km/h
1545 16-06-2005 21:08:02 22.7 C 9.29 g/m*3 22.7 C 0 km/h
1546 16-06-2005 21:20:02 22.4 C 9.14 g/m*3 22.4 C 0 km/h
1547 16-06-2005 21:32:03 21.9 C 9.46 g/m*3 21.9 C 0 km/h
1548 16-06-2005 21:44:03 21.3 C 9.13 g/m*3 21.3 C 0 km/h
1549 16-06-2005 21:56:02 21.3 C 9.32 g/m*3 21.3 C 0 km/h
1550 16-06-2005 22:08:02 21.4 C 9 g/m*3 21.4 C 0 km/h
Sensor: Nr:Datum:Temp:Abs-Feuchte:Windchill:Wind:
Aussen-T/F 1551 16-06-2005 22:20:02 21.3 C 9.13 g/m*3 21.3 C 0 km/h
1552 16-06-2005 22:32:02 21.2 C 9.08 g/m*3 21.2 C 0 km/h
1553 16-06-2005 22:44:02 21.2 C 9.08 g/m*3 21.2 C 0 km/h
1554 16-06-2005 22:56:02 21.2 C 9.08 g/m*3 21.2 C 0 km/h
1555 16-06-2005 23:08:01 21.3 C 9.13 g/m*3 21.3 C 0 km/h
1556 16-06-2005 23:20:02 21.4 C 9.37 g/m*3 21.4 C 0 km/h
1557 16-06-2005 23:32:02 21.2 C 9.45 g/m*3 21.2 C 0 km/h
1558 16-06-2005 23:44:02 21.1 C 9.4 g/m*3 21.1 C 0 km/h
1559 16-06-2005 23:56:02 21 C 9.53 g/m*3 21 C 0 km/h
1560 17-06-2005 00:08:02 20.8 C 9.6 g/m*3 20.8 C 0 km/h
1561 17-06-2005 00:20:03 20.8 C 9.78 g/m*3 20.8 C 0 km/h
1562 17-06-2005 00:32:03 20.8 C 9.96 g/m*3 20.8 C 0 km/h
1563 17-06-2005 00:44:03 20.8 C 9.96 g/m*3 20.8 C 0 km/h
1564 17-06-2005 00:56:03 20.7 C 10.26 g/m*3 20.7 C 0 km/h
1565 17-06-2005 01:08:02 20.5 C 10.14 g/m*3 20.5 C 0 km/h
1566 17-06-2005 01:20:02 20.6 C 10.38 g/m*3 20.6 C 0 km/h
1567 17-06-2005 01:32:02 20.5 C 10.5 g/m*3 20.5 C 0 km/h
1568 17-06-2005 01:44:03 20.3 C 10.38 g/m*3 20.3 C 0 km/h
1569 17-06-2005 01:56:02 19.8 C 10.42 g/m*3 19.8 C 0 km/h
1570 17-06-2005 02:08:02 19.5 C 10.57 g/m*3 19.5 C 0 km/h
1571 17-06-2005 02:20:03 19.4 C 10.68 g/m*3 19.4 C 0 km/h
1572 17-06-2005 02:32:02 19.6 C 10.64 g/m*3 19.6 C 0 km/h
1573 17-06-2005 02:44:02 19.5 C 10.57 g/m*3 19.5 C 0 km/h
1574 17-06-2005 02:57:03 19.4 C 10.68 g/m*3 19.4 C 0 km/h
1575 17-06-2005 03:09:03 19.2 C 10.72 g/m*3 19.2 C 0 km/h
Sensor: Nr:Datum:Temp:Abs-Feuchte:Windchill:Wind:
Aussen-T/F 1576 17-06-2005 03:21:03 19.2 C 10.72 g/m*3 19.2 C 0 km/h
1577 17-06-2005 03:33:03 19.1 C 10.66 g/m*3 19.1 C 0 km/h
1578 17-06-2005 03:45:03 18.9 C 11.18 g/m*3 18.9 C 0 km/h
1579 17-06-2005 03:57:03 19.1 C 11.15 g/m*3 19.1 C 0 km/h
1580 17-06-2005 04:09:02 19 C 11.57 g/m*3 19 C 0 km/h
1581 17-06-2005 04:21:02 18.5 C 11.87 g/m*3 18.5 C 0 km/h
1582 17-06-2005 04:33:02 17.9 C 12.37 g/m*3 17.9 C 0 km/h
1583 17-06-2005 04:45:03 17.5 C 12.67 g/m*3 17.5 C 0 km/h
1584 17-06-2005 04:57:03 17.5 C 12.97 g/m*3 17.5 C 0 km/h
1585 17-06-2005 05:09:03 17.4 C 13.04 g/m*3 17.4 C 0 km/h
1586 17-06-2005 05:21:03 17.2 C 12.89 g/m*3 17.2 C 0 km/h
1587 17-06-2005 05:33:02 17.3 C 12.96 g/m*3 17.3 C 0 km/h
1588 17-06-2005 05:45:02 17.5 C 13.12 g/m*3 17.5 C 0 km/h
1589 17-06-2005 05:57:02 17.2 C 12.89 g/m*3 17.2 C 0 km/h
1590 17-06-2005 06:09:02 17.2 C 12.89 g/m*3 17.2 C 0 km/h
1591 17-06-2005 06:21:02 17.4 C 13.04 g/m*3 17.4 C 0 km/h
1592 17-06-2005 06:33:03 17.6 C 13.05 g/m*3 17.6 C 0 km/h
1593 17-06-2005 06:45:03 17.5 C 12.82 g/m*3 17.5 C 0 km/h
1594 17-06-2005 06:57:03 17.7 C 12.82 g/m*3 17.7 C 0 km/h
1595 17-06-2005 07:09:03 17.8 C 12.9 g/m*3 17.8 C 0 km/h
1596 17-06-2005 07:21:02 18 C 12.9 g/m*3 18 C 0 km/h
1597 17-06-2005 07:33:03 18.1 C 12.82 g/m*3 18.1 C 0 km/h
1598 17-06-2005 07:45:02 18.1 C 12.67 g/m*3 18.1 C 0 km/h
1599 17-06-2005 07:57:03 18.1 C 12.67 g/m*3 18.1 C 0 km/h
1600 17-06-2005 08:09:02 18.3 C 12.82 g/m*3 18.3 C 0 km/h
Sensor: Nr:Datum:Temp:Abs-Feuchte:Windchill:Wind:
Aussen-T/F 1601 17-06-2005 08:21:02 18.4 C 12.9 g/m*3 18.4 C 0 km/h
1602 17-06-2005 08:33:02 18.5 C 12.82 g/m*3 18.5 C 0 km/h
1603 17-06-2005 08:45:02 18.6 C 13.05 g/m*3 18.6 C 0 km/h
1604 17-06-2005 08:57:02 18.9 C 13.12 g/m*3 18.9 C 0 km/h
1605 17-06-2005 09:09:02 19 C 12.87 g/m*3 19 C 0 km/h
1606 17-06-2005 09:21:01 19 C 12.87 g/m*3 19 C 0 km/h
1607 17-06-2005 09:33:02 19.2 C 13.03 g/m*3 19.2 C 0 km/h
1608 17-06-2005 09:45:02 19.3 C 12.94 g/m*3 19.3 C 0 km/h
1609 17-06-2005 09:57:02 19.7 C 13.25 g/m*3 19.7 C 0 km/h
1610 17-06-2005 10:09:02 19.9 C 13.4 g/m*3 19.9 C 0 km/h
1611 17-06-2005 10:21:02 20.4 C 12.91 g/m*3 20.4 C 0 km/h
1612 17-06-2005 10:33:02 20.6 C 13.07 g/m*3 20.6 C 0 km/h
1613 17-06-2005 10:45:02 20.8 C 13.04 g/m*3 20.8 C 0 km/h
1614 17-06-2005 10:57:02 21.2 C 13.16 g/m*3 21.2 C 0 km/h
1615 17-06-2005 11:09:02 20.8 C 12.86 g/m*3 20.8 C 0 km/h
1616 17-06-2005 11:21:02 20.9 C 13.48 g/m*3 20.9 C 0 km/h
1617 17-06-2005 11:33:02 21 C 12.64 g/m*3 21 C 0 km/h
1618 17-06-2005 11:45:02 21.9 C 12.74 g/m*3 21.9 C 0 km/h
1619 17-06-2005 11:57:02 23.3 C 13.17 g/m*3 23.3 C 0 km/h
1620 17-06-2005 12:09:02 23.1 C 11.78 g/m*3 23.1 C 0 km/h
1621 17-06-2005 12:21:02 22.9 C 11.65 g/m*3 22.9 C 0 km/h
1622 17-06-2005 12:33:02 23.3 C 11.71 g/m*3 23.3 C 0 km/h
1623 17-06-2005 12:45:02 22.7 C 11.92 g/m*3 22.7 C 0 km/h
1624 17-06-2005 12:57:02 22.8 C 12.19 g/m*3 22.8 C 0 km/h
1625 17-06-2005 13:09:02 24.2 C 12.32 g/m*3 24.2 C 0 km/h
Sensor: Nr:Datum:Temp:Abs-Feuchte:Windchill:Wind:
Aussen-T/F 1626 17-06-2005 13:21:02 24.9 C 11.9 g/m*3 24.9 C 0 km/h
1627 17-06-2005 13:33:03 24.8 C 11.38 g/m*3 24.8 C 0 km/h
1628 17-06-2005 13:45:02 24.7 C 11.32 g/m*3 24.7 C 0 km/h
1629 17-06-2005 13:57:02 24.3 C 10.62 g/m*3 24.3 C 0 km/h
1630 17-06-2005 14:09:02 24.7 C 11.54 g/m*3 24.7 C 0 km/h
1631 17-06-2005 14:21:02 23.8 C 11.4 g/m*3 23.8 C 0 km/h
1632 17-06-2005 14:33:02 23.8 C 11.4 g/m*3 23.8 C 0 km/h
1633 17-06-2005 14:45:03 24.5 C 11.41 g/m*3 24.5 C 0 km/h
1634 17-06-2005 14:57:03 24.6 C 11.25 g/m*3 24.6 C 0 km/h
1635 17-06-2005 15:09:04 24.5 C 10.97 g/m*3 24.5 C 0 km/h
1636 17-06-2005 15:21:02 24.4 C 10.9 g/m*3 24.4 C 0 km/h
1637 17-06-2005 15:33:04 24.5 C 10.97 g/m*3 24.5 C 0 km/h
1638 17-06-2005 15:45:02 24.6 C 10.58 g/m*3 24.6 C 0 km/h
1639 17-06-2005 15:57:02 24.9 C 10.76 g/m*3 24.9 C 0 km/h
1640 17-06-2005 16:09:02 24.8 C 10.7 g/m*3 24.8 C 0 km/h
1641 17-06-2005 16:21:02 24.1 C 10.94 g/m*3 24.1 C 0 km/h
1642 17-06-2005 16:33:01 24 C 10.88 g/m*3 24 C 0 km/h
1643 17-06-2005 16:45:02 24.8 C 11.38 g/m*3 24.8 C 0 km/h
1644 17-06-2005 16:57:02 25.2 C 11.41 g/m*3 25.2 C 0 km/h
1645 17-06-2005 17:09:01 24.8 C 11.38 g/m*3 24.8 C 0 km/h
1646 17-06-2005 17:21:02 24.5 C 11.19 g/m*3 24.5 C 0 km/h
1647 17-06-2005 17:33:01 24.6 C 12.15 g/m*3 24.6 C 0 km/h
1648 17-06-2005 17:45:02 24.5 C 11.86 g/m*3 24.5 C 0 km/h
1649 17-06-2005 17:57:02 24.1 C 12.47 g/m*3 24.1 C 0 km/h
1650 17-06-2005 18:09:02 23.8 C 12.05 g/m*3 23.8 C 0 km/h
Sensor: Nr:Datum:Temp:Abs-Feuchte:Windchill:Wind:
Aussen-T/F 1651 17-06-2005 18:21:02 24 C 12.18 g/m*3 24 C 0 km/h
1652 17-06-2005 18:33:02 24 C 11.75 g/m*3 24 C 0 km/h
1653 17-06-2005 18:45:01 23.9 C 11.9 g/m*3 23.9 C 0 km/h
1654 17-06-2005 18:57:01 23.7 C 11.98 g/m*3 23.7 C 0 km/h
1655 17-06-2005 19:09:01 24 C 11.97 g/m*3 24 C 0 km/h
1656 17-06-2005 19:21:01 23.9 C 11.9 g/m*3 23.9 C 0 km/h
1657 17-06-2005 19:33:02 24.6 C 11.93 g/m*3 24.6 C 0 km/h
1658 17-06-2005 19:45:02 24.2 C 11.88 g/m*3 24.2 C 0 km/h
1659 17-06-2005 19:57:02 24.1 C 12.03 g/m*3 24.1 C 0 km/h
1660 17-06-2005 20:09:02 24 C 12.18 g/m*3 24 C 0 km/h
1661 17-06-2005 20:21:03 23.5 C 12.05 g/m*3 23.5 C 0 km/h
1662 17-06-2005 20:33:02 23.3 C 12.13 g/m*3 23.3 C 0 km/h
1663 17-06-2005 20:45:02 23.2 C 12.27 g/m*3 23.2 C 0 km/h
1664 17-06-2005 20:57:02 23.4 C 12.41 g/m*3 23.4 C 0 km/h
1665 17-06-2005 21:09:02 23 C 12.33 g/m*3 23 C 0 km/h
1666 17-06-2005 21:21:02 22.8 C 12.6 g/m*3 22.8 C 0 km/h
1667 17-06-2005 21:33:03 22.7 C 12.53 g/m*3 22.7 C 0 km/h
1668 17-06-2005 21:45:02 22.5 C 12.58 g/m*3 22.5 C 0 km/h
1669 17-06-2005 21:57:02 22.3 C 12.64 g/m*3 22.3 C 0 km/h
1670 17-06-2005 22:09:02 22.1 C 12.69 g/m*3 22.1 C 0 km/h
1671 17-06-2005 22:21:02 22 C 12.62 g/m*3 22 C 0 km/h
1672 17-06-2005 22:33:02 22 C 12.62 g/m*3 22 C 0 km/h
1673 17-06-2005 22:45:02 22 C 12.62 g/m*3 22 C 0 km/h
1674 17-06-2005 22:57:02 21.9 C 12.93 g/m*3 21.9 C 0 km/h
1675 17-06-2005 23:09:01 21.7 C 12.97 g/m*3 21.7 C 0 km/h
Sensor: Nr:Datum:Temp:Abs-Feuchte:Windchill:Wind:
Aussen-T/F 1676 17-06-2005 23:21:02 21.6 C 12.9 g/m*3 21.6 C 0 km/h
1677 17-06-2005 23:33:02 21.5 C 12.82 g/m*3 21.5 C 0 km/h
1678 17-06-2005 23:45:02 21.4 C 12.75 g/m*3 21.4 C 0 km/h
1679 17-06-2005 23:57:02 21.4 C 12.75 g/m*3 21.4 C 0 km/h

Legende:
   Min
   Max


Maximal/Minimal-Werte vom 04.06.2005 - 17.06.2005

Sensor Min Max Avg
Temp
(Aussen-T/F)
5.6 °C
08-06-2005  06:00:03
29.3 °C
15-06-2005  16:31:02
16.4 °C
Abs-Feuchte
(Aussen-T/F)
3.74 g/m*3
07-06-2005  15:23:02
13.48 g/m*3
17-06-2005  11:21:02
7.37 g/m*3
Windchill
(Aussen-T/F)
5.6 C
08-06-2005  06:00:03
29.3 C
15-06-2005  16:31:02
16.39 C

Die Daten stammen von einer Davis Vantage Pro 2 Wetter-Station und werden unter Linux mit der Software wview2wettercgi und aufbereitet. Alle Angaben erfolgen ohne Gewähr für ihre Vollständigkeit oder Richtigkeit.
Kontakt: Rainer Krienke krienke@uni-koblenz.de . Meine Webseiten an der Uni Koblenz oder privat.
Version: $Revision: 0.78 $